Warning: Javascript must be enabled to use all the features on this page!


Page Loading - Please Wait...

Click to hideNews Bulletins

Streamflow Measurements for the Nation


USGS 11447905 SACRAMENTO R BL GEORGIANA SLOUGH CA


Sacramento County, California
Hydrologic Unit Code 18020163
Latitude  38°14'20", Longitude 121°31'18" NAD27
Gage datum 0 feet above NAVD88
Output formats
HTML table with channel data
HTML table without channel data
Tab-separated data with channel data
Tab-separated data without channel data
Graph of data
Reselect output format
Meas.
Number
  Date       Time Time
Datum
Measurement
Used?
  Who Measuring
Agency
Stream
flow
(ft3/s)
Gage
Height
(ft)
GH
Change
(ft)
Meas.
Duration
(hr)
Meas.
Rated
  Control Flow
Adjust.
Code
 
11492019-09-18 12:52:43PSTYesZH/TDUSGS92804.68 Good NONE
11482019-09-18 12:47:29PSTYesZH/TDUSGS95304.70 Good NONE
11472019-09-18 12:42:26PSTYesZH/TDUSGS93304.71 Good NONE
11462019-09-18 12:38:07PSTYesZH/TDUSGS95204.74 Fair NONE
11452019-09-18 12:33:41PSTYesZH/TDUSGS95804.75 Good NONE
11442019-09-18 12:29:16PSTYesZH/TDUSGS98104.77 Good NONE
11432019-07-25 12:23:13PSTYesTD/ZHUSGS52804.79 Unspecified NONE
11422019-07-25 12:19:07PSTYesTD/ZHUSGS52304.80 Unspecified NONE
11412019-07-25 12:14:45PSTYesTD/ZHUSGS50404.80 Unspecified NONE
11402019-07-25 12:10:21PSTYesTD/ZHUSGS47604.81 Unspecified NONE
11392019-07-25 12:06:18PSTYesTD/ZHUSGS45404.82 Unspecified NONE
11382019-07-25 12:02:51PSTYesTD/ZHUSGS44304.82 Fair NONE
11372019-05-23 11:36:58PSTYesMI/TD/ZHUSGS191007.31 Unspecified NONE
11362019-05-23 11:31:35PSTYesMI/TD/ZHUSGS193007.34 Unspecified NONE
11352019-05-23 11:27:34PSTYesMI/TD/ZHUSGS199007.35 Unspecified NONE
11342019-05-23 11:23:27PSTYesMI/TD/ZHUSGS199007.37 Unspecified NONE
11332019-05-23 11:19:22PSTYesMI/TD/ZHUSGS197007.39 Unspecified NONE
11322019-05-23 11:15:36PSTYesMI/TD/ZHUSGS200007.40 Unspecified NONE
11312019-03-27 10:52:50PSTYesMP, ZHUSGS230009.34 Good NONE
11302019-03-27 10:49:52PSTYesMP, ZHUSGS231009.34 Good NONE
11292019-03-27 10:47:01PSTYesMP, ZHUSGS230009.34 Good NONE
11282019-03-27 10:44:08PSTYesMP, ZHUSGS235009.35 Good NONE
11272019-03-27 10:41:17PSTYesMP, ZHUSGS230009.35 Good NONE
11262019-03-27 10:38:14PSTYesMP, ZHUSGS234009.36 Good NONE
11252019-02-15 13:03:46PSTYesTV/MIUSGS2930011.47 Unspecified NONE
11242019-02-15 12:58:40PSTYesTV/MIUSGS2910011.48 Unspecified NONE
11232019-02-15 12:54:06PSTYesTV/MIUSGS2910011.47 Unspecified NONE
11222019-02-15 12:50:12PSTYesTV/MIUSGS2900011.47 Unspecified NONE
11212019-02-15 12:46:15PSTYesTV/MIUSGS2860011.50 Unspecified NONE
11202019-02-15 12:42:44PSTYesTV/MIUSGS2840011.49 Unspecified NONE
11192019-01-29 09:44:24PSTYesRJ/TD/BFUSGS75206.52 Unspecified NONE
11182019-01-29 09:39:51PSTYesRJ/TD/BFUSGS73806.49 Unspecified NONE
11172019-01-29 09:35PSTYesRJ/TD/BFUSGS74606.46 Unspecified NONE
11162019-01-29 09:30:19PSTYesRJ/TD/BFUSGS76106.42 Unspecified NONE
11152019-01-29 09:25:57PSTYesRJ/TD/BFUSGS75406.40 Unspecified NONE
11142019-01-29 09:21:34PSTYesRJ/TD/BFUSGS78606.36 Unspecified NONE
11132018-12-20 12:33:34PSTYesRJ/HR/TDUSGS27206.25 Unspecified NONE
11122018-12-20 12:29:26PSTYesRJ/HR/TDUSGS27206.22 Unspecified NONE
11112018-12-20 12:25:20PSTYesRJ/HR/TDUSGS29306.19 Unspecified NONE
11102018-12-20 12:20:35PSTYesRJ/HR/TDUSGS29906.16 Unspecified NONE
11092018-12-20 12:15:40PSTYesRJ/HR/TDUSGS29906.12 Unspecified NONE
11082018-12-20 12:11:12PSTYesRJ/HR/TDUSGS30106.08 Unspecified NONE
11072018-10-10 08:32:03PSTYesRJ, MIUSGS84605.43 Unspecified NONE
11062018-10-10 08:27:12PSTYesRJ, MIUSGS83605.46 Unspecified NONE
11052018-10-10 08:22:33PSTYesRJ, MIUSGS82605.50 Unspecified NONE
11042018-10-10 08:17:46PSTYesRJ, MIUSGS79705.52 Unspecified NONE
11032018-10-10 08:12:43PSTYesRJ, MIUSGS80005.54 Unspecified NONE
11022018-10-10 08:06:57PSTYesRJ, MIUSGS77405.58 Unspecified NONE
11012018-08-21 11:17:04PSTYesTV/ACUSGS26504.42 Unspecified NONE
11002018-08-21 11:13:26PSTYesTV/ACUSGS30504.41 Unspecified NONE
10992018-08-21 11:09:32PSTYesTV/ACUSGS32504.38 Unspecified NONE
10982018-08-21 11:05:03PSTYesTV/ACUSGS34004.36 Unspecified NONE
10972018-08-21 11:01:31PSTYesTV/ACUSGS36804.35 Unspecified NONE
10962018-08-21 10:57:40PSTYesTV/ACUSGS38104.34 Unspecified NONE
10952018-06-26 08:26:54PSTYesRPJ,NVBUSGS101005.00 Unspecified NONE
10942018-06-26 08:22:14PSTYesRPJ,NVBUSGS101005.03 Unspecified NONE
10932018-06-26 08:17:37PSTYesRPJ,NVBUSGS98805.09 Unspecified NONE
10922018-06-26 08:12:38PSTYesRPJ,NVBUSGS99305.09 Unspecified NONE
10912018-06-26 08:07:34PSTYesRPJ,NVBUSGS99905.13 Unspecified NONE
10902018-06-26 08:02:42PSTYesRPJ,NVBUSGS101005.16 Unspecified NONE
10892018-06-26 07:57:55PSTYesRPJ,NVBUSGS102005.20 Unspecified NONE
10882018-06-26 07:52:58PSTYesRPJ,NVBUSGS98205.22 Unspecified NONE
10872018-05-09 10:36:11PSTYesRPJ, MIUSGS-2535.09 Unspecified NONE
10862018-05-09 10:32:01PSTYesRPJ, MIUSGS-1905.07 Unspecified NONE
10852018-05-09 10:28:11PSTYesRPJ, MIUSGS49.85.05 Unspecified NONE
10842018-05-09 10:23:16PSTYesRPJ, MIUSGS1215.01 Unspecified NONE
10832018-05-09 10:18:51PSTYesRPJ, MIUSGS54.15.00 Unspecified NONE
10822018-05-09 10:14:30PSTYesRPJ, MIUSGS2714.97 Unspecified NONE
10812018-02-15 10:17:31PSTYesRPJ,NWSUSGS80604.16 Unspecified NONE
10802018-02-15 10:11:06PSTYesRPJ,NWSUSGS80304.18 Unspecified NONE
10792018-02-15 10:04:34PSTYesRPJ,NWSUSGS80204.21 Unspecified NONE
10782018-02-15 09:57:31PSTYesRPJ,NWSUSGS79004.24 Unspecified NONE
10772018-02-15 09:50:49PSTYesRPJ,NWSUSGS80804.26 Unspecified NONE
10762018-02-15 09:42:56PSTYesRPJ,NWSUSGS81004.29 Unspecified NONE
10752017-12-21 11:24:28PSTYesRPJ,BFUSGS74604.44 Unspecified NONE
10742017-12-21 11:19:02PSTYesRPJ,BFUSGS73104.45 Unspecified NONE
10732017-12-21 11:12:49PSTYesRPJ,BFUSGS74604.49 Unspecified NONE
10722017-12-21 11:07:18PSTYesRPJ,BFUSGS75904.51 Unspecified NONE
10712017-12-21 11:02PSTYesRPJ,BFUSGS75604.53 Unspecified NONE
10702017-12-21 10:57:04PSTYesRPJ,BFUSGS74004.55 Unspecified NONE
10692017-10-11 08:31:17PSTYesRPJ,WFUSGS-6745.40 Unspecified NONE
10682017-10-11 08:26:09PSTYesRPJ,WFUSGS-7085.37 Unspecified NONE
10672017-10-11 08:20:33PSTYesRPJ,WFUSGS-7035.33 Unspecified NONE
10662017-10-11 08:14:19PSTYesRPJ,WFUSGS-6225.30 Unspecified NONE
10652017-10-11 08:08:13PSTYesRPJ,WFUSGS-5195.25 Unspecified NONE
10642017-10-11 07:59:52PSTYesRPJ,WFUSGS-4705.19 Unspecified NONE
10632017-08-15 09:53:26PSTYesRPJ TvUSGS-10205.19 Poor NONE
10622017-08-15 09:46PSTYesRPJ TvUSGS-8795.14 Poor NONE
10612017-08-15 09:39:05PSTYesRPJ TvUSGS-6845.09 Poor NONE
10602017-08-15 09:32:33PSTYesRPJ TvUSGS-5475.05 Poor NONE
10592017-08-15 09:24:21PSTYesRPJ TvUSGS-3454.99 Unspecified NONE
10582017-08-15 09:18:16PSTYesRPJ TvUSGS-1914.95 Unspecified NONE
10572017-05-24 10:35:19PSTYesRPJ, BFUSGS192006.65 Unspecified NONE
10562017-05-24 10:30:21PSTYesRPJ, BFUSGS191006.65 Unspecified NONE
10552017-05-24 10:26:02PSTYesRPJ, BFUSGS191006.68 Unspecified NONE
10542017-05-24 10:22:08PSTYesRPJ, BFUSGS189006.69 Unspecified NONE
10532017-05-24 10:17:02PSTYesRPJ, BFUSGS190006.70 Unspecified NONE
10522017-05-24 10:12:05PSTYesRPJ, BFUSGS184006.72 Unspecified NONE
10512017-04-03 13:12:12PSTYesrj,nvUSGS244009.06 Unspecified NONE
10502017-04-03 13:04:57PSTYesrj,nvUSGS236009.10 Unspecified NONE
10492017-04-03 12:57:54PSTYesrj,nvUSGS233009.12 Unspecified NONE
10482017-04-03 12:51:30PSTYesrj,nvUSGS236009.12 Unspecified NONE
10472017-04-03 12:44:43PSTYesrj,nvUSGS242009.14 Unspecified NONE
10462017-04-03 12:37:39PSTYesrj,nvUSGS239009.15 Unspecified NONE
10452017-01-26 15:53:07PSTYesNVB, RJUSGS2540011.19 Good NONE
10442017-01-26 15:47:35PSTYesNVB, RJUSGS2600011.19 Good NONE
10432017-01-26 15:41:20PSTYesNVB, RJUSGS2500011.20 Good NONE
10422017-01-26 15:34:54PSTYesNVB, RJUSGS2680011.20 Good NONE
10412017-01-26 15:28:44PSTYesNVB, RJUSGS2570011.19 Good NONE
10402017-01-26 15:22:51PSTYesNVB, RJUSGS2700011.28 Good NONE
10392017-01-10 14:52:07PSTYesBS/WFUSGS3380013.76 Good NONE
10382017-01-10 14:47:42PSTYesBS/WFUSGS3450013.76 Good NONE
10372017-01-10 14:42:52PSTYesBS/WFUSGS3410013.76 Good NONE
10362017-01-10 14:37:45PSTYesBS/WFUSGS3550013.75 Good NONE
10352017-01-10 14:32:07PSTYesBS/WFUSGS3340013.74 Fair NONE
10342017-01-10 14:26:51PSTYesBS/WFUSGS3570013.73 Fair NONE
10332016-11-22 13:41:36PSTYesRPJ,NVBUSGS36705.63 Fair NONE
10322016-11-22 13:34:22PSTYesRPJ,NVBUSGS28305.67 Fair NONE
10312016-11-22 13:27:40PSTYesRPJ,NVBUSGS20505.70 Fair NONE
10302016-11-22 13:21:28PSTYesRPJ,NVBUSGS12305.74 Fair NONE
10292016-11-22 13:15:15PSTYesRPJ,NVBUSGS6135.76 Fair NONE
10282016-11-22 13:09:26PSTYesRPJ,NVBUSGS1365.78 Fair NONE
10272016-09-28 13:51:30PSTYesBSUSGS-50905.29 Unspecified NONE
10262016-09-28 13:42PSTYesBSUSGS-51305.22 Unspecified NONE
10252016-09-28 13:33:30PSTYesBSUSGS-49805.17 Unspecified NONE
10242016-09-28 13:25:30PSTYesBSUSGS-49505.11 Unspecified NONE
10232016-09-28 13:17PSTYesBSUSGS-50005.05 Unspecified NONE
10222016-09-28 13:09PSTYesBSUSGS-48704.99 Unspecified NONE
10212016-07-19 13:28:24PSTYesND, WFUSGS54403.99 Good NONE
10202016-07-19 13:18:36PSTYesND, WFUSGS60303.95 Good NONE
10192016-07-19 13:08:31PSTYesND, WFUSGS71403.92 Good NONE
10182016-07-19 12:58:33PSTYesND, WFUSGS76403.88 Good NONE
10172016-07-19 12:49:09PSTYesND, WFUSGS83803.87 Good NONE
10162016-07-19 12:40:10PSTYesND, WFUSGS87203.87 Good NONE
10152016-04-11 10:46:49PSTYesNVB,TVUSGS115005.78 Fair NONE
10142016-04-11 10:41:13PSTYesNVB,TVUSGS115005.82 Fair NONE
10132016-04-11 10:35:45PSTYesNVB,TVUSGS115005.86 Fair NONE
10122016-04-11 10:30:04PSTYesNVB,TVUSGS114005.89 Fair NONE
10112016-04-11 10:23:37PSTYesNVB,TVUSGS115005.92 Fair NONE
10102016-04-11 10:17:54PSTYesNVB,TVUSGS113005.96 Fair NONE
10092016-03-14 14:10:44PSTYesBS/BFUSGS3170011.41 Fair NONE
10082016-03-14 14:05:38PSTYesBS/BFUSGS2840011.39 Fair NONE
10072016-03-14 14:00:34PSTYesBS/BFUSGS3100011.42 Fair NONE
10062016-03-14 13:55:27PSTYesBS/BFUSGS2840011.41 Fair NONE
10052016-03-14 13:50:05PSTYesBS/BFUSGS3160011.41 Fair NONE
10042016-03-14 13:44:57PSTYesBS/BFUSGS2800011.44 Fair NONE
10032015-11-20 13:24:58PSTYesDA,SAUSGS-35505.24 Fair NONE
10022015-11-20 13:16:39PSTYesDA,SAUSGS-39705.26 Fair NONE
10012015-11-20 13:04:31PSTYesDA,SAUSGS-51305.23 Fair NONE
10002015-11-20 12:55:01PSTYesDA,SAUSGS-54205.23 Fair NONE
9992015-11-20 12:46:31PSTYesDA,SAUSGS-61105.19 Fair NONE
9982015-11-20 12:39:01PSTYesDA,SAUSGS-63505.17 Fair NONE
9972015-11-20 12:32:17PSTYesDA,SAUSGS-63405.15 Fair NONE
9962015-11-20 12:24:50PSTYesDA,SAUSGS-64805.11 Fair NONE
9952015-11-20 12:17:07PSTYesDA,SAUSGS-71305.08 Fair NONE
9942015-11-20 12:10:48PSTYesDA,SAUSGS-70005.04 Fair NONE
9932015-08-26 11:54PSTYesDA/ADUSGS-27704.44 GoodUnspecifedNONE
9922015-08-26 11:48PSTYesDA/ADUSGS-26404.39 GoodUnspecifedNONE
9912015-08-26 11:42PSTYesDA/ADUSGS-19204.33 GoodUnspecifedNONE
9902015-08-26 11:36PSTYesDA/ADUSGS-13704.26 GoodUnspecifedNONE
9892015-08-26 11:23PSTYesDA/ADUSGS-3554.14 GoodUnspecifedNONE
9882015-08-26 11:19PSTYesDA/ADUSGS44.04.09 GoodUnspecifedNONE
9872015-08-26 11:14PSTYesDA/ADUSGS6424.05 GoodUnspecifedNONE
9862015-08-26 11:09PSTYesDA/ADUSGS9854.01 GoodUnspecifedNONE
9852015-08-26 11:02PSTYesDA/ADUSGS16103.97 GoodUnspecifedNONE
9842015-08-26 10:56PSTYesDA/ADUSGS21003.91 GoodUnspecifedNONE
9832015-07-06 13:49PSTYesMVC/CEUSGS97404.22 FairUnspecifedNONE
9822015-07-06 13:44PSTYesMVC/CEUSGS96104.25 FairUnspecifedNONE
9812015-07-06 13:40PSTYesMVC/CEUSGS97704.28 FairUnspecifedNONE
9802015-07-06 13:36PSTYesMVC/CEUSGS94304.31 FairUnspecifedNONE
9792015-07-06 13:32PSTYesMVC/CEUSGS96204.33 FairUnspecifedNONE
9782015-07-06 13:27PSTYesMVC/CEUSGS97004.37 FairUnspecifedNONE
9772015-05-12 10:02PSTYesMVC/KMUSGS-36805.34 FairUnspecifedNONE
9762015-05-12 09:55PSTYesMVC/KMUSGS-35705.31 FairUnspecifedNONE
9752015-05-12 09:48PSTYesMVC/KMUSGS-35105.27 FairUnspecifedNONE
9742015-05-12 09:40PSTYesMVC/KMUSGS-33005.23 FairUnspecifedNONE
9732015-05-12 09:22PSTYesMVC/KMUSGS-28805.16 FairUnspecifedNONE
9722015-05-12 09:16PSTYesMVC/KMUSGS-27805.14 FairUnspecifedNONE
9712015-05-12 09:10PSTYesMVC/KMUSGS-26505.11 FairUnspecifedNONE
9702015-05-12 09:03PSTYesMVC/KMUSGS-23705.08 FairUnspecifedNONE
9692015-05-12 08:57PSTYesMVC/KMUSGS-21105.04 FairUnspecifedNONE
9682015-05-12 08:50PSTYesMVC/KMUSGS-16905.01 FairUnspecifedNONE
9672015-05-12 08:33PSTYesMVC/KMUSGS-8484.88 FairUnspecifedNONE
9662015-05-12 08:27PSTYesMVC/KMUSGS-4704.81 FairUnspecifedNONE
9652015-03-17 12:30PSTNo
9642015-03-17 12:24PSTNo
9632015-03-17 12:18PSTNo
9622015-03-17 12:14PSTNo
9612015-03-17 12:09PSTNo
9602015-03-17 12:04PSTNo
9592015-03-17 12:00PSTNo
9582015-03-17 11:54PSTNo
9572015-02-10 13:29PSTNo
9562015-02-10 13:19PSTNo
9552015-02-10 13:11PSTNo
9542015-02-10 12:57PSTNo
9532015-02-10 12:49PSTNo
9522015-02-10 12:41PSTNo
9512015-02-10 12:34PSTNo
9502015-01-20 15:27PSTYesMVC/KMUSGS-60106.15 GoodUnspecifedNONE
9492015-01-20 15:19PSTYesMVC/KMUSGS-59506.09 GoodUnspecifedNONE
9482015-01-20 15:11PSTYesMVC/KMUSGS-65806.05 GoodUnspecifedNONE
9472015-01-20 15:02PSTYesMVC/KMUSGS-66505.99 GoodUnspecifedNONE
9462015-01-20 14:53PSTYesMVC/KMUSGS-63805.92 GoodUnspecifedNONE
9452015-01-20 14:46PSTYesMVC/KMUSGS-63305.87 GoodUnspecifedNONE
9442015-01-20 14:38PSTYesMVC/KMUSGS-64505.81 GoodUnspecifedNONE
9432015-01-20 14:30PSTYesMVC/KMUSGS-64105.75 GoodUnspecifedNONE
9422015-01-20 14:22PSTYesMVC/KMUSGS-61205.68 GoodUnspecifedNONE
9412015-01-20 14:14PSTYesMVC/KMUSGS-61005.62 GoodUnspecifedNONE
9402015-01-20 14:05PSTYesMVC/KMUSGS-57705.54 GoodUnspecifedNONE
9392015-01-20 13:56PSTYesMVC/KMUSGS-56605.49 GoodUnspecifedNONE
9382015-01-20 13:49PSTYesMVC/KMUSGS-58905.44 GoodUnspecifedNONE
9372015-01-20 13:40PSTYesMVC/KMUSGS-57605.39 GoodUnspecifedNONE
9362015-01-20 13:30PSTYesMVC/KMUSGS-55105.35 GoodUnspecifedNONE
9352015-01-20 13:22PSTYesMVC/KMUSGS-51405.30 GoodUnspecifedNONE
9342015-01-20 13:13PSTYesMVC/KMUSGS-44905.24 GoodUnspecifedNONE
9332015-01-20 13:05PSTYesMVC/KMUSGS-39005.18 GoodUnspecifedNONE
9322015-01-20 12:55PSTYesMVC/KMUSGS-33205.08 GoodUnspecifedNONE
9312015-01-20 12:43PSTYesMVC/KMUSGS-25104.95 GoodUnspecifedNONE
9302015-01-20 12:32PSTYesMVC/KMUSGS-13204.81 GoodUnspecifedNONE
9292014-12-15 16:06PSTNo
9282014-12-15 15:56PSTNo
9272014-12-15 15:45PSTNo
9262014-12-15 15:36PSTNo
9252014-12-15 15:25PSTNo
9242014-12-15 15:15PSTNo
9232014-09-29 13:48PSTYesDA/NDUSGS63404.19 GoodUnspecifedNONE
9222014-09-29 13:38PSTYesDA/NDUSGS64504.22 GoodUnspecifedNONE
9212014-09-29 13:28PSTYesDA/NDUSGS70404.25 GoodUnspecifedNONE
9202014-09-29 13:18PSTYesDA/NDUSGS71604.28 GoodUnspecifedNONE
9192014-09-29 13:06PSTYesDA/NDUSGS72304.33 GoodUnspecifedNONE
9182014-09-29 12:47PSTYesDA/NDUSGS74704.40 GoodUnspecifedNONE
9172014-09-29 12:24PSTYesDA/NDUSGS75504.51 GoodUnspecifedNONE
9162012-04-02 14:08PSTYesUKN/NAMUSGS12900 UnspecifiedUnspecifedNONE
9152012-04-02 13:58PSTYesUKN/NAMUSGS12700 UnspecifiedUnspecifedNONE
9142012-04-02 13:48PSTYesUKN/NAMUSGS12200 UnspecifiedUnspecifedNONE
9132012-04-02 13:37PSTYesUKN/NAMUSGS11800 UnspecifiedUnspecifedNONE
9122012-02-15 17:24PSTYesUKN/NAMUSGS11400 UnspecifiedUnspecifedNONE
9112012-02-15 17:17PSTYesUKN/NAMUSGS11400 UnspecifiedUnspecifedNONE
9102012-02-15 12:29PSTYesUKN/NAMUSGS9320 UnspecifiedUnspecifedNONE
9092012-02-15 12:22PSTYesUKN/NAMUSGS8860 UnspecifiedUnspecifedNONE
9082012-02-15 12:14PSTYesUKN/NAMUSGS8590 UnspecifiedUnspecifedNONE
9072012-02-15 12:07PSTYesUKN/NAMUSGS8060 UnspecifiedUnspecifedNONE
9062012-02-15 11:59PSTYesUKN/NAMUSGS7780 UnspecifiedUnspecifedNONE
9052012-02-15 11:49PSTYesUKN/NAMUSGS7130 UnspecifiedUnspecifedNONE
9042011-03-21 11:58PSTYesUKN/NAMUSGS35400 UnspecifiedUnspecifedNONE
9032011-03-21 11:53PSTYesUKN/NAMUSGS36100 UnspecifiedUnspecifedNONE
9022011-03-21 11:49PSTYesUKN/NAMUSGS35600 UnspecifiedUnspecifedNONE
9012011-03-21 11:44PSTYesUKN/NAMUSGS36200 UnspecifiedUnspecifedNONE
9002011-03-21 11:39PSTYesUKN/NAMUSGS36000 UnspecifiedUnspecifedNONE
8992011-03-21 11:32PSTYesUKN/NAMUSGS36000 UnspecifiedUnspecifedNONE
8982010-12-22 15:23PSTYesUKN/NAMUSGS27400 UnspecifiedUnspecifedNONE
8972010-12-22 15:12PSTYesUKN/NAMUSGS27600 UnspecifiedUnspecifedNONE
8962010-12-22 15:06PSTYesUKN/NAMUSGS27900 UnspecifiedUnspecifedNONE
8952010-12-22 15:00PSTYesUKN/NAMUSGS27500 UnspecifiedUnspecifedNONE
8942010-12-22 14:54PSTYesUKN/NAMUSGS27900 UnspecifiedUnspecifedNONE
8932010-12-22 14:47PSTYesUKN/NAMUSGS27500 UnspecifiedUnspecifedNONE
8922010-12-22 14:39PSTYesUKN/NAMUSGS27900 UnspecifiedUnspecifedNONE
8912010-10-07 17:44PSTYesUKN/NAMUSGS4670 UnspecifiedUnspecifedNONE
8902010-10-07 17:39PSTYesUKN/NAMUSGS4230 UnspecifiedUnspecifedNONE
8892010-10-07 17:35PSTYesUKN/NAMUSGS3680 UnspecifiedUnspecifedNONE
8882010-10-07 17:30PSTYesUKN/NAMUSGS3180 UnspecifiedUnspecifedNONE
8872010-10-07 16:31PSTYesUKN/NAMUSGS-3840 UnspecifiedUnspecifedNONE
8862010-10-07 16:27PSTYesUKN/NAMUSGS-4150 UnspecifiedUnspecifedNONE
8852010-10-07 16:22PSTYesUKN/NAMUSGS-4280 UnspecifiedUnspecifedNONE
8842010-10-07 16:18PSTYesUKN/NAMUSGS-4570 UnspecifiedUnspecifedNONE
8832010-10-07 16:13PSTYesUKN/NAMUSGS-4760 UnspecifiedUnspecifedNONE
8822010-10-07 16:08PSTYesUKN/NAMUSGS-4900 UnspecifiedUnspecifedNONE
8812010-10-07 15:14PSTYesUKN/NAMUSGS-6100 UnspecifiedUnspecifedNONE
8802010-10-07 15:07PSTYesUKN/NAMUSGS-6170 UnspecifiedUnspecifedNONE
8792010-10-07 15:02PSTYesUKN/NAMUSGS-6090 UnspecifiedUnspecifedNONE
8782010-10-07 14:57PSTYesUKN/NAMUSGS-6240 UnspecifiedUnspecifedNONE
8772010-10-07 14:48PSTYesUKN/NAMUSGS-6260 UnspecifiedUnspecifedNONE
8762010-10-07 14:42PSTYesUKN/NAMUSGS-6190 UnspecifiedUnspecifedNONE
8752010-10-07 14:37PSTYesUKN/NAMUSGS-6130 UnspecifiedUnspecifedNONE
8742010-10-07 14:32PSTYesUKN/NAMUSGS-6020 UnspecifiedUnspecifedNONE
8732010-10-07 13:14PSTYesUKN/NAMUSGS-4550 UnspecifiedUnspecifedNONE
8722010-10-07 13:09PSTYesUKN/NAMUSGS-4250 UnspecifiedUnspecifedNONE
8712010-10-07 13:05PSTYesUKN/NAMUSGS-3930 UnspecifiedUnspecifedNONE
8702010-10-07 13:01PSTYesUKN/NAMUSGS-3700 UnspecifiedUnspecifedNONE
8692010-10-07 12:56PSTYesUKN/NAMUSGS-3330 UnspecifiedUnspecifedNONE
8682010-10-07 12:51PSTYesUKN/NAMUSGS-3050 UnspecifiedUnspecifedNONE
8672010-10-07 12:46PSTYesUKN/NAMUSGS-2600 UnspecifiedUnspecifedNONE
8662010-10-07 12:42PSTYesUKN/NAMUSGS-2140 UnspecifiedUnspecifedNONE
8652010-10-07 12:37PSTYesUKN/NAMUSGS-1750 UnspecifiedUnspecifedNONE
8642010-10-07 12:30PSTYesUKN/NAMUSGS-918 UnspecifiedUnspecifedNONE
8632010-10-07 12:19PSTYesUKN/NAMUSGS91.0 UnspecifiedUnspecifedNONE
8622010-10-07 12:14PSTYesUKN/NAMUSGS612 UnspecifiedUnspecifedNONE
8612010-10-07 11:02PSTYesUKN/NAMUSGS6980 UnspecifiedUnspecifedNONE
8602010-10-07 10:57PSTYesUKN/NAMUSGS7450 UnspecifiedUnspecifedNONE
8592010-10-07 10:51PSTYesUKN/NAMUSGS7870 UnspecifiedUnspecifedNONE
8582010-10-07 10:45PSTYesUKN/NAMUSGS7950 UnspecifiedUnspecifedNONE
8572010-10-07 10:38PSTYesUKN/NAMUSGS8130 UnspecifiedUnspecifedNONE
8562010-10-07 10:32PSTYesUKN/NAMUSGS8460 UnspecifiedUnspecifedNONE
8552010-10-07 10:26PSTYesUKN/NAMUSGS8380 UnspecifiedUnspecifedNONE
8542010-10-07 10:20PSTYesUKN/NAMUSGS8570 UnspecifiedUnspecifedNONE
8532010-10-07 10:14PSTYesUKN/NAMUSGS8670 UnspecifiedUnspecifedNONE
8522010-10-07 10:09PSTYesUKN/NAMUSGS8680 UnspecifiedUnspecifedNONE
8512010-10-07 08:35PSTYesUKN/NAMUSGS9080 UnspecifiedUnspecifedNONE
8502010-10-07 08:29PSTYesUKN/NAMUSGS9090 UnspecifiedUnspecifedNONE
8492010-10-07 08:23PSTYesUKN/NAMUSGS9010 UnspecifiedUnspecifedNONE
8482010-10-07 08:17PSTYesUKN/NAMUSGS9190 UnspecifiedUnspecifedNONE
8472010-10-07 08:11PSTYesUKN/NAMUSGS8970 UnspecifiedUnspecifedNONE
8462010-10-07 08:04PSTYesUKN/NAMUSGS9050 UnspecifiedUnspecifedNONE
8452010-10-07 07:54PSTYesUKN/NAMUSGS9120 UnspecifiedUnspecifedNONE
8442010-10-07 07:49PSTYesUKN/NAMUSGS8820 UnspecifiedUnspecifedNONE
8432010-10-07 07:42PSTYesUKN/NAMUSGS8790 UnspecifiedUnspecifedNONE
8422010-01-25 16:24PSTYesUKN/NAMUSGS25000 UnspecifiedUnspecifedNONE
8412010-01-25 16:20PSTYesUKN/NAMUSGS24800 UnspecifiedUnspecifedNONE
8402010-01-25 16:16PSTYesUKN/NAMUSGS24900 UnspecifiedUnspecifedNONE
8392010-01-25 16:11PSTYesUKN/NAMUSGS24200 UnspecifiedUnspecifedNONE
8382009-07-21 18:55PSTYesUKN/NAMUSGS5710 UnspecifiedUnspecifedNONE
8372009-07-21 18:51PSTYesUKN/NAMUSGS5280 UnspecifiedUnspecifedNONE
8362009-07-21 18:47PSTYesUKN/NAMUSGS4930 UnspecifiedUnspecifedNONE
8352009-07-21 18:41PSTYesUKN/NAMUSGS4470 UnspecifiedUnspecifedNONE
8342009-07-21 18:37PSTYesUKN/NAMUSGS3910 UnspecifiedUnspecifedNONE
8332009-07-21 18:32PSTYesUKN/NAMUSGS3580 UnspecifiedUnspecifedNONE
8322009-07-21 18:28PSTYesUKN/NAMUSGS3180 UnspecifiedUnspecifedNONE
8312009-07-21 18:24PSTYesUKN/NAMUSGS2740 UnspecifiedUnspecifedNONE
8302009-07-21 18:20PSTYesUKN/NAMUSGS2430 UnspecifiedUnspecifedNONE
8292009-07-21 18:17PSTYesUKN/NAMUSGS1030 UnspecifiedUnspecifedNONE
8282009-07-21 18:13PSTYesUKN/NAMUSGS1750 UnspecifiedUnspecifedNONE
8272009-07-21 18:09PSTYesUKN/NAMUSGS1360 UnspecifiedUnspecifedNONE
8262009-07-21 18:05PSTYesUKN/NAMUSGS1070 UnspecifiedUnspecifedNONE
8252009-07-21 18:01PSTYesUKN/NAMUSGS604 UnspecifiedUnspecifedNONE
8242009-07-21 17:56PSTYesUKN/NAMUSGS439 UnspecifiedUnspecifedNONE
8232009-07-21 17:51PSTYesUKN/NAMUSGS184 UnspecifiedUnspecifedNONE
8222009-07-21 17:47PSTYesUKN/NAMUSGS-16.0 UnspecifiedUnspecifedNONE
8212009-07-21 17:42PSTYesUKN/NAMUSGS-92.0 UnspecifiedUnspecifedNONE
8202009-07-21 17:37PSTYesUKN/NAMUSGS-399 UnspecifiedUnspecifedNONE
8192009-07-21 17:15PSTYesUKN/NAMUSGS-1330 UnspecifiedUnspecifedNONE
8182009-07-21 17:09PSTYesUKN/NAMUSGS-1470 UnspecifiedUnspecifedNONE
8172009-07-21 17:05PSTYesUKN/NAMUSGS-1570 UnspecifiedUnspecifedNONE
8162009-07-21 16:59PSTYesUKN/NAMUSGS-1770 UnspecifiedUnspecifedNONE
8152009-07-21 16:54PSTYesUKN/NAMUSGS-1920 UnspecifiedUnspecifedNONE
8142009-07-21 16:49PSTYesUKN/NAMUSGS-2010 UnspecifiedUnspecifedNONE
8132009-07-21 16:44PSTYesUKN/NAMUSGS-2190 UnspecifiedUnspecifedNONE
8122009-07-21 16:38PSTYesUKN/NAMUSGS-2210 UnspecifiedUnspecifedNONE
8112009-07-21 16:33PSTYesUKN/NAMUSGS-2310 UnspecifiedUnspecifedNONE
8102009-07-21 16:27PSTYesUKN/NAMUSGS-2230 UnspecifiedUnspecifedNONE
8092009-07-21 16:19PSTYesUKN/NAMUSGS-1950 UnspecifiedUnspecifedNONE
8082009-07-21 16:14PSTYesUKN/NAMUSGS-1890 UnspecifiedUnspecifedNONE
8072009-07-21 15:47PSTYesUKN/NAMUSGS-1380 UnspecifiedUnspecifedNONE
8062009-07-21 15:41PSTYesUKN/NAMUSGS-1210 UnspecifiedUnspecifedNONE
8052009-07-21 15:36PSTYesUKN/NAMUSGS-1170 UnspecifiedUnspecifedNONE
8042009-07-21 15:30PSTYesUKN/NAMUSGS-1070 UnspecifiedUnspecifedNONE
8032009-07-21 15:25PSTYesUKN/NAMUSGS-867 UnspecifiedUnspecifedNONE
8022009-07-21 15:19PSTYesUKN/NAMUSGS-749 UnspecifiedUnspecifedNONE
8012009-07-21 15:13PSTYesUKN/NAMUSGS-511 UnspecifiedUnspecifedNONE
8002009-07-21 15:08PSTYesUKN/NAMUSGS-393 UnspecifiedUnspecifedNONE
7992009-07-21 15:03PSTYesUKN/NAMUSGS-79.0 UnspecifiedUnspecifedNONE
7982009-07-21 14:58PSTYesUKN/NAMUSGS113 UnspecifiedUnspecifedNONE
7972009-07-21 14:53PSTYesUKN/NAMUSGS311 UnspecifiedUnspecifedNONE
7962009-07-21 14:48PSTYesUKN/NAMUSGS644 UnspecifiedUnspecifedNONE
7952009-07-21 14:44PSTYesUKN/NAMUSGS1090 UnspecifiedUnspecifedNONE
7942009-07-21 14:39PSTYesUKN/NAMUSGS1350 UnspecifiedUnspecifedNONE
7932009-07-21 14:34PSTYesUKN/NAMUSGS1660 UnspecifiedUnspecifedNONE
7922009-07-21 14:30PSTYesUKN/NAMUSGS2130 UnspecifiedUnspecifedNONE
7912009-07-21 14:25PSTYesUKN/NAMUSGS2610 UnspecifiedUnspecifedNONE
7902009-07-21 14:21PSTYesUKN/NAMUSGS2960 UnspecifiedUnspecifedNONE
7892009-07-21 14:16PSTYesUKN/NAMUSGS3400 UnspecifiedUnspecifedNONE
7882009-07-21 14:11PSTYesUKN/NAMUSGS3680 UnspecifiedUnspecifedNONE
7872009-07-21 14:07PSTYesUKN/NAMUSGS3870 UnspecifiedUnspecifedNONE
7862009-07-21 14:04PSTYesUKN/NAMUSGS4250 UnspecifiedUnspecifedNONE
7852009-07-21 14:00PSTYesUKN/NAMUSGS4480 UnspecifiedUnspecifedNONE
7842009-07-21 13:56PSTYesUKN/NAMUSGS4870 UnspecifiedUnspecifedNONE
7832009-07-21 13:52PSTYesUKN/NAMUSGS5160 UnspecifiedUnspecifedNONE
7822009-07-21 13:48PSTYesUKN/NAMUSGS5370 UnspecifiedUnspecifedNONE
7812009-07-21 13:44PSTYesUKN/NAMUSGS5510 UnspecifiedUnspecifedNONE
7802009-07-21 13:41PSTYesUKN/NAMUSGS5680 UnspecifiedUnspecifedNONE
7792009-07-21 13:37PSTYesUKN/NAMUSGS5940 UnspecifiedUnspecifedNONE
7782009-07-21 13:33PSTYesUKN/NAMUSGS6140 UnspecifiedUnspecifedNONE
7772009-07-21 13:29PSTYesUKN/NAMUSGS6280 UnspecifiedUnspecifedNONE
7762009-07-21 13:24PSTYesUKN/NAMUSGS6430 UnspecifiedUnspecifedNONE
7752009-07-21 13:06PSTYesUKN/NAMUSGS7940 UnspecifiedUnspecifedNONE
7742009-07-21 13:00PSTYesUKN/NAMUSGS8230 UnspecifiedUnspecifedNONE
7732009-07-21 12:56PSTYesUKN/NAMUSGS8530 UnspecifiedUnspecifedNONE
7722009-07-21 12:51PSTYesUKN/NAMUSGS9120 UnspecifiedUnspecifedNONE
7712009-07-21 12:45PSTYesUKN/NAMUSGS9470 UnspecifiedUnspecifedNONE
7702009-07-21 12:41PSTYesUKN/NAMUSGS9880 UnspecifiedUnspecifedNONE
7692009-07-21 12:31PSTYesUKN/NAMUSGS10300 UnspecifiedUnspecifedNONE
7682009-07-21 12:24PSTYesUKN/NAMUSGS10600 UnspecifiedUnspecifedNONE
7672009-07-21 12:19PSTYesUKN/NAMUSGS10900 UnspecifiedUnspecifedNONE
7662009-07-21 12:14PSTYesUKN/NAMUSGS11000 UnspecifiedUnspecifedNONE
7652009-07-21 12:09PSTYesUKN/NAMUSGS10800 UnspecifiedUnspecifedNONE
7642009-07-21 10:48PSTYesUKN/NAMUSGS12000 UnspecifiedUnspecifedNONE
7632009-07-21 10:43PSTYesUKN/NAMUSGS11900 UnspecifiedUnspecifedNONE
7622009-07-21 10:27PSTYesUKN/NAMUSGS11900 UnspecifiedUnspecifedNONE
7612009-07-21 10:22PSTYesUKN/NAMUSGS12000 UnspecifiedUnspecifedNONE
7602009-07-21 10:05PSTYesUKN/NAMUSGS12000 UnspecifiedUnspecifedNONE
7592009-07-21 09:59PSTYesUKN/NAMUSGS12100 UnspecifiedUnspecifedNONE
7582009-07-21 09:38PSTYesUKN/NAMUSGS11900 UnspecifiedUnspecifedNONE
7572009-07-21 09:33PSTYesUKN/NAMUSGS11800 UnspecifiedUnspecifedNONE
7562009-07-21 09:27PSTYesUKN/NAMUSGS12100 UnspecifiedUnspecifedNONE
7552009-07-21 09:22PSTYesUKN/NAMUSGS11900 UnspecifiedUnspecifedNONE
7542009-07-21 08:25PSTYesUKN/NAMUSGS11700 UnspecifiedUnspecifedNONE
7532009-07-21 08:20PSTYesUKN/NAMUSGS11600 UnspecifiedUnspecifedNONE
7522009-07-21 07:56PSTYesUKN/NAMUSGS11400 UnspecifiedUnspecifedNONE
7512009-07-21 07:49PSTYesUKN/NAMUSGS11400 UnspecifiedUnspecifedNONE
7502009-07-21 07:32PSTYesUKN/NAMUSGS11200 UnspecifiedUnspecifedNONE
7492009-07-21 07:26PSTYesUKN/NAMUSGS11200 UnspecifiedUnspecifedNONE
7482009-07-21 07:13PSTYesUKN/NAMUSGS11300 UnspecifiedUnspecifedNONE
7472009-07-21 07:07PSTYesUKN/NAMUSGS11000 UnspecifiedUnspecifedNONE
7462009-07-21 06:45PSTYesUKN/NAMUSGS10800 UnspecifiedUnspecifedNONE
7452009-07-21 06:40PSTYesUKN/NAMUSGS10900 UnspecifiedUnspecifedNONE
7442009-07-21 06:16PSTYesUKN/NAMUSGS10800 UnspecifiedUnspecifedNONE
7432009-07-21 06:10PSTYesUKN/NAMUSGS10700 UnspecifiedUnspecifedNONE
7412009-07-21 05:53PSTYesUKN/NAMUSGS10300 UnspecifiedUnspecifedNONE
7402009-03-09 12:09PSTYesBJS/PHKUSGS108005.86 Unspecified NONE
7392009-03-09 12:05PSTYesBJS/PHKUSGS110005.83 Unspecified NONE
7382009-03-09 12:02PSTYesBJS/PHKUSGS109005.80 Unspecified NONE
7372009-03-09 11:58PSTYesBJS/PHKUSGS113005.78 Unspecified NONE
7362009-03-09 11:54PSTYesBJS/PHKUSGS112005.75 Unspecified NONE
7352009-03-09 11:49PSTYesBJS/PHKUSGS111005.71 Unspecified NONE
7342008-08-19 18:48PSTYesMPM/JBDUSGS-53805.74 Unspecified NONE
7332008-08-19 18:45PSTYesMPM/JBDUSGS-52305.73 Unspecified NONE
7322008-08-19 18:42PSTYesMPM/JBDUSGS-55005.72 Unspecified NONE
7312008-08-19 18:39PSTYesMPM/JBDUSGS-55905.70 Unspecified NONE
7302008-08-19 18:36PSTYesMPM/JBDUSGS-55305.68 Unspecified NONE
7292008-08-19 18:33PSTYesMPM/JBDUSGS-56705.67 Unspecified NONE
7282008-08-19 18:30PSTYesMPM/JBDUSGS-56505.65 Unspecified NONE
7272008-08-19 18:27PSTYesMPM/JBDUSGS-57505.63 Unspecified NONE
7262008-08-19 18:24PSTYesMPM/JBDUSGS-57805.62 Unspecified NONE
7252008-08-19 18:21PSTYesMPM/JBDUSGS-57305.60 Unspecified NONE
7242008-08-19 18:18PSTYesMPM/JBDUSGS-59105.58 Unspecified NONE
7232008-08-19 18:15PSTYesMPM/JBDUSGS-61305.56 Unspecified NONE
7222008-08-19 18:12PSTYesMPM/JBDUSGS-61405.54 Unspecified NONE
7212008-08-19 18:09PSTYesMPM/JBDUSGS-60305.52 Unspecified NONE
7202008-08-19 18:05PSTYesMPM/JBDUSGS-62305.50 Unspecified NONE
7192008-08-19 18:02PSTYesMPM/JBDUSGS-61505.48 Unspecified NONE
7182008-08-19 17:59PSTYesMPM/JBDUSGS-60305.46 Unspecified NONE
7172008-08-19 17:56PSTYesMPM/JBDUSGS-60605.45 Unspecified NONE
7162008-08-19 17:53PSTYesMPM/JBDUSGS-60705.43 Unspecified NONE
7152008-08-19 17:50PSTYesMPM/JBDUSGS-62805.41 Unspecified NONE
7142008-08-19 17:46PSTYesMPM/JBDUSGS-62105.40 Unspecified NONE
7132008-08-19 17:43PSTYesMPM/JBDUSGS-62105.38 Unspecified NONE
7122008-08-19 17:40PSTYesMPM/JBDUSGS-59505.35 Unspecified NONE
7112008-08-19 17:36PSTYesMPM/JBDUSGS-63705.33 Unspecified NONE
7102008-08-19 17:33PSTYesMPM/JBDUSGS-62405.31 Unspecified NONE
7092008-08-19 17:30PSTYesMPM/JBDUSGS-62405.29 Unspecified NONE
7082008-08-19 17:26PSTYesMPM/JBDUSGS-61605.26 Unspecified NONE
7072008-08-19 17:23PSTYesMPM/JBDUSGS-63205.24 Unspecified NONE
7062008-08-19 17:19PSTYesMPM/JBDUSGS-61405.21 Unspecified NONE
7052008-08-19 17:16PSTYesMPM/JBDUSGS-61205.18 Unspecified NONE
7042008-08-19 17:12PSTYesMPM/JBDUSGS-59305.16 Unspecified NONE
7032008-08-19 17:09PSTYesMPM/JBDUSGS-61605.14 Unspecified NONE
7022008-08-19 17:06PSTYesMPM/JBDUSGS-60405.12 Unspecified NONE
7012008-08-19 17:03PSTYesMPM/JBDUSGS-59505.10 Unspecified NONE
7002008-08-19 17:00PSTYesMPM/JBDUSGS-60405.08 Unspecified NONE
6992008-08-19 16:57PSTYesMPM/JBDUSGS-59705.06 Unspecified NONE
6982008-08-19 16:54PSTYesMPM/JBDUSGS-59305.03 Unspecified NONE
6972008-08-19 16:50PSTYesMPM/JBDUSGS-61005.01 Unspecified NONE
6962008-08-19 16:46PSTYesMPM/JBDUSGS-59804.98 Unspecified NONE
6952008-08-19 16:42PSTYesMPM/JBDUSGS-55304.95 Unspecified NONE
6942008-08-19 16:38PSTYesMPM/JBDUSGS-57604.93 Unspecified NONE
6932008-08-19 16:34PSTYesMPM/JBDUSGS-57204.91 Unspecified NONE
6922008-08-19 16:31PSTYesMPM/JBDUSGS-58504.88 Unspecified NONE
6912008-08-19 16:27PSTYesMPM/JBDUSGS-58204.86 Unspecified NONE
6902008-08-19 16:20PSTYesMPM/JBDUSGS-53304.81 Unspecified NONE
6892008-08-19 16:16PSTYesMPM/JBDUSGS-55604.79 Unspecified NONE
6882008-08-19 16:13PSTYesMPM/JBDUSGS-53504.76 Unspecified NONE
6872008-08-19 16:09PSTYesMPM/JBDUSGS-53404.74 Unspecified NONE
6862008-08-19 16:06PSTYesMPM/JBDUSGS-51704.72 Unspecified NONE
6852008-08-19 16:03PSTYesMPM/JBDUSGS-52204.70 Unspecified NONE
6842008-08-19 16:00PSTYesMPM/JBDUSGS-51004.68 Unspecified NONE
6832008-08-19 15:56PSTYesMPM/JBDUSGS-48204.65 Unspecified NONE
6822008-08-19 15:53PSTYesMPM/JBDUSGS-50204.62 Unspecified NONE
6812008-08-19 15:50PSTYesMPM/JBDUSGS-45704.59 Unspecified NONE
6802008-08-19 15:47PSTYesMPM/JBDUSGS-45304.56 Unspecified NONE
6792008-08-19 15:43PSTYesMPM/JBDUSGS-41704.53 Unspecified NONE
6782008-08-19 15:40PSTYesMPM/JBDUSGS-40904.51 Unspecified NONE
6772008-08-19 15:37PSTYesMPM/JBDUSGS-40504.48 Unspecified NONE
6762008-08-19 15:34PSTYesMPM/JBDUSGS-37204.45 Unspecified NONE
6752008-08-19 15:31PSTYesMPM/JBDUSGS-31704.42 Unspecified NONE
6742008-08-19 15:27PSTYesMPM/JBDUSGS-30704.38 Unspecified NONE
6732008-08-19 15:24PSTYesMPM/JBDUSGS-28404.34 Unspecified NONE
6722008-08-19 15:21PSTYesMPM/JBDUSGS-24204.31 Unspecified NONE
6712008-08-19 15:18PSTYesMPM/JBDUSGS-22404.28 Unspecified NONE
6702008-08-19 15:16PSTYesMPM/JBDUSGS-21304.25 Unspecified NONE
6692008-08-19 15:13PSTYesMPM/JBDUSGS-17604.22 Unspecified NONE
6682008-08-19 15:09PSTYesMPM/JBDUSGS-15104.18 Unspecified NONE
6672008-08-19 15:06PSTYesMPM/JBDUSGS-9894.15 Unspecified NONE
6662008-08-19 15:02PSTYesMPM/JBDUSGS-4824.11 Unspecified NONE
6652008-08-19 14:58PSTYesMPM/JBDUSGS49.04.07 Unspecified NONE
6642008-08-19 14:54PSTYesMPM/JBDUSGS2764.04 Unspecified NONE
6632008-08-19 14:50PSTYesMPM/JBDUSGS7334.01 Unspecified NONE
6622008-08-19 14:47PSTYesMPM/JBDUSGS8363.98 Unspecified NONE
6612008-08-19 14:44PSTYesMPM/JBDUSGS13403.95 Unspecified NONE
6602008-08-19 14:41PSTYesMPM/JBDUSGS15603.93 Unspecified NONE
6592008-08-19 14:34PSTYesMPM/JBDUSGS21103.89 Unspecified NONE
6582008-08-19 14:31PSTYesMPM/JBDUSGS22803.87 Unspecified NONE
6572008-08-19 14:29PSTYesMPM/JBDUSGS26603.85 Unspecified NONE
6562008-08-19 14:26PSTYesMPM/JBDUSGS26403.84 Unspecified NONE
6552008-08-19 14:23PSTYesMPM/JBDUSGS27103.82 Unspecified NONE
6542008-08-19 14:20PSTYesMPM/JBDUSGS31403.81 Unspecified NONE
6532008-08-19 14:18PSTYesMPM/JBDUSGS34003.79 Unspecified NONE
6522008-08-19 14:15PSTYesMPM/JBDUSGS35203.78 Unspecified NONE
6512008-08-19 14:09PSTYesMPM/JBDUSGS40803.75 Unspecified NONE
6502008-08-19 14:06PSTYesMPM/JBDUSGS43803.74 Unspecified NONE
6492008-08-19 14:04PSTYesMPM/JBDUSGS48103.73 Unspecified NONE
6482008-08-19 14:00PSTYesMPM/JBDUSGS49603.71 Unspecified NONE
6472008-08-19 13:57PSTYesMPM/JBDUSGS53903.70 Unspecified NONE
6462008-08-19 13:54PSTYesMPM/JBDUSGS58303.69 Unspecified NONE
6452008-08-19 13:51PSTYesMPM/JBDUSGS58303.68 Unspecified NONE
6442008-08-19 13:47PSTYesMPM/JBDUSGS61903.67 Unspecified NONE
6432008-08-19 13:43PSTYesMPM/JBDUSGS67803.66 Unspecified NONE
6422008-08-19 13:40PSTYesMPM/JBDUSGS68803.66 Unspecified NONE
6412008-08-19 13:37PSTYesMPM/JBDUSGS70603.65 Unspecified NONE
6402008-08-19 13:33PSTYesMPM/JBDUSGS72203.65 Unspecified NONE
6392008-08-19 13:30PSTYesMPM/JBDUSGS75203.65 Unspecified NONE
6382008-08-19 13:27PSTYesMPM/JBDUSGS77903.65 Unspecified NONE
6372008-08-19 13:24PSTYesMPM/JBDUSGS78003.66 Unspecified NONE
6362008-08-19 13:20PSTYesMPM/JBDUSGS80203.66 Unspecified NONE
6352008-08-19 13:14PSTYesMPM/JBDUSGS81203.67 Unspecified NONE
6342008-08-19 13:11PSTYesMPM/JBDUSGS83303.69 Unspecified NONE
6332008-08-19 13:07PSTYesMPM/JBDUSGS83703.70 Unspecified NONE
6322008-08-19 13:04PSTYesMPM/JBDUSGS84403.71 Unspecified NONE
6312008-08-19 13:00PSTYesMPM/JBDUSGS87403.73 Unspecified NONE
6302008-08-19 12:57PSTYesMPM/JBDUSGS84603.74 Unspecified NONE
6292008-08-19 12:53PSTYesMPM/JBDUSGS87603.76 Unspecified NONE
6282008-08-19 12:50PSTYesMPM/JBDUSGS86803.77 Unspecified NONE
6272008-08-19 12:46PSTYesMPM/JBDUSGS87803.78 Unspecified NONE
6262008-08-19 12:43PSTYesMPM/JBDUSGS89403.80 Unspecified NONE
6252008-08-19 12:39PSTYesMPM/JBDUSGS88103.82 Unspecified NONE
6242008-08-19 12:36PSTYesMPM/JBDUSGS86803.84 Unspecified NONE
6232008-08-19 12:32PSTYesMPM/JBDUSGS89503.86 Unspecified NONE
6222008-08-19 12:28PSTYesMPM/JBDUSGS90003.88 Unspecified NONE
6212008-08-19 12:25PSTYesMPM/JBDUSGS88903.90 Unspecified NONE
6202008-08-19 12:21PSTYesMPM/JBDUSGS89503.92 Unspecified NONE
6192008-08-19 12:17PSTYesMPM/JBDUSGS90503.94 Unspecified NONE
6182008-08-19 12:14PSTYesMPM/JBDUSGS90003.96 Unspecified NONE
6172008-08-19 12:10PSTYesMPM/JBDUSGS90003.98 Unspecified NONE
6162008-08-19 12:07PSTYesMPM/JBDUSGS88604.00 Unspecified NONE
6152008-08-19 12:03PSTYesMPM/JBDUSGS91104.01 Unspecified NONE
6142008-08-19 12:00PSTYesMPM/JBDUSGS89104.03 Unspecified NONE
6132008-08-19 11:56PSTYesMPM/JBDUSGS91104.05 Unspecified NONE
6122008-08-19 11:52PSTYesMPM/JBDUSGS90104.08 Unspecified NONE
6112008-08-19 11:49PSTYesMPM/JBDUSGS91004.10 Unspecified NONE
6102008-08-19 11:45PSTYesMPM/JBDUSGS89804.12 Unspecified NONE
6092008-08-19 11:42PSTYesMPM/JBDUSGS91204.14 Unspecified NONE
6082008-08-19 11:38PSTYesMPM/JBDUSGS85904.17 Unspecified NONE
6072008-08-19 11:31PSTYesMPM/JBDUSGS91104.21 Unspecified NONE
6062008-08-19 11:27PSTYesMPM/JBDUSGS88904.24 Unspecified NONE
6052008-08-19 11:20PSTYesMPM/JBDUSGS91404.28 Unspecified NONE
6042008-08-19 11:17PSTYesMPM/JBDUSGS89604.30 Unspecified NONE
6032008-08-19 11:13PSTYesMPM/JBDUSGS91204.32 Unspecified NONE
6022008-08-19 11:10PSTYesMPM/JBDUSGS89804.34 Unspecified NONE
6012008-08-19 11:06PSTYesMPM/JBDUSGS88704.36 Unspecified NONE
6002008-08-19 11:03PSTYesMPM/JBDUSGS89504.37 Unspecified NONE
5992008-08-19 11:00PSTYesMPM/JBDUSGS89504.39 Unspecified NONE
5982008-08-19 10:56PSTYesMPM/JBDUSGS89704.41 Unspecified NONE
5972008-08-19 10:53PSTYesMPM/JBDUSGS89404.43 Unspecified NONE
5962008-08-19 10:50PSTYesMPM/JBDUSGS91204.45 Unspecified NONE
5952008-08-19 10:46PSTYesMPM/JBDUSGS89004.47 Unspecified NONE
5942008-08-19 10:42PSTYesMPM/JBDUSGS90204.49 Unspecified NONE
5932008-08-19 10:37PSTYesMPM/JBDUSGS89804.52 Unspecified NONE
5922008-08-19 10:31PSTYesMPM/JBDUSGS89204.54 Unspecified NONE
5912008-08-19 10:26PSTYesMPM/JBDUSGS88004.57 Unspecified NONE
5902008-08-19 10:23PSTYesMPM/JBDUSGS89504.59 Unspecified NONE
5892008-08-19 10:20PSTYesMPM/JBDUSGS91704.62 Unspecified NONE
5882008-08-19 10:17PSTYesMPM/JBDUSGS87704.64 Unspecified NONE
5872008-08-19 10:14PSTYesMPM/JBDUSGS90504.66 Unspecified NONE
5862008-08-19 10:10PSTYesMPM/JBDUSGS90304.68 Unspecified NONE
5852008-08-19 10:07PSTYesMPM/JBDUSGS88504.70 Unspecified NONE
5842008-08-19 10:04PSTYesMPM/JBDUSGS86904.72 Unspecified NONE
5832008-08-19 10:01PSTYesMPM/JBDUSGS86304.73 Unspecified NONE
5822008-08-19 09:58PSTYesMPM/JBDUSGS87804.76 Unspecified NONE
5812008-08-19 09:54PSTYesMPM/JBDUSGS85604.78 Unspecified NONE
5802008-08-19 09:51PSTYesMPM/JBDUSGS87804.80 Unspecified NONE
5792008-08-19 09:48PSTYesMPM/JBDUSGS85904.82 Unspecified NONE
5782008-08-19 09:44PSTYesMPM/JBDUSGS86304.84 Unspecified NONE
5772008-08-19 09:41PSTYesMPM/JBDUSGS86104.86 Unspecified NONE
5762008-08-19 09:38PSTYesMPM/JBDUSGS86304.88 Unspecified NONE
5752008-08-19 09:35PSTYesMPM/JBDUSGS86404.90 Unspecified NONE
5742008-08-19 09:31PSTYesMPM/JBDUSGS87204.92 Unspecified NONE
5732008-08-19 09:28PSTYesMPM/JBDUSGS88204.94 Unspecified NONE
5722008-08-19 09:24PSTYesMPM/JBDUSGS86604.96 Unspecified NONE
5712008-08-19 09:20PSTYesMPM/JBDUSGS86804.99 Unspecified NONE
5702008-08-19 09:16PSTYesMPM/JBDUSGS83605.02 Unspecified NONE
5692008-08-19 09:13PSTYesMPM/JBDUSGS80205.03 Unspecified NONE
5682008-08-19 09:09PSTYesMPM/JBDUSGS84705.05 Unspecified NONE
5672008-08-19 09:06PSTYesMPM/JBDUSGS83105.07 Unspecified NONE
5662008-08-19 09:03PSTYesMPM/JBDUSGS84305.08 Unspecified NONE
5652008-08-19 09:00PSTYesMPM/JBDUSGS84705.10 Unspecified NONE
5642008-08-19 08:57PSTYesMPM/JBDUSGS81605.12 Unspecified NONE
5632008-08-19 08:54PSTYesMPM/JBDUSGS82805.14 Unspecified NONE
5622008-08-19 08:51PSTYesMPM/JBDUSGS82305.16 Unspecified NONE
5612008-08-19 08:42PSTYesMPM/JBDUSGS77705.21 Unspecified NONE
5602008-08-19 08:39PSTYesMPM/JBDUSGS80405.23 Unspecified NONE
5592008-08-19 08:35PSTYesMPM/JBDUSGS80005.25 Unspecified NONE
5582008-08-19 08:17PSTYesMPM/JBDUSGS72405.36 Unspecified NONE
5572008-08-19 08:13PSTYesMPM/JBDUSGS69805.38 Unspecified NONE
5562008-08-19 08:09PSTYesMPM/JBDUSGS68105.40 Unspecified NONE
5552008-08-19 08:04PSTYesMPM/JBDUSGS66305.42 Unspecified NONE
5542008-08-19 07:45PSTYesMPM/JBDUSGS57705.51 Unspecified NONE
5532008-08-19 07:41PSTYesMPM/JBDUSGS55305.53 Unspecified NONE
5522008-08-19 07:37PSTYesMPM/JBDUSGS52605.55 Unspecified NONE
5512008-08-19 07:33PSTYesMPM/JBDUSGS49705.57 Unspecified NONE
5502008-08-19 07:23PSTYesMPM/JBDUSGS43305.63 Unspecified NONE
5492008-08-19 07:16PSTYesMPM/JBDUSGS35205.66 Unspecified NONE
5482008-08-19 07:09PSTYesMPM/JBDUSGS27805.71 Unspecified NONE
5472008-08-19 07:03PSTYesMPM/JBDUSGS19205.75 Unspecified NONE
5462008-03-25 12:32PSTYesJBD/CRBUSGS88503.68 Unspecified NONE
5452008-03-25 12:27PSTYesJBD/CRBUSGS90003.71 Unspecified NONE
5442008-03-25 12:22PSTYesJBD/CRBUSGS90603.74 Unspecified NONE
5432008-03-25 12:17PSTYesJBD/CRBUSGS89403.77 Unspecified NONE
5422008-03-25 12:12PSTYesJBD/CRBUSGS89203.80 Unspecified NONE
5412008-03-25 12:07PSTYesJBD/CRBUSGS89903.83 Unspecified NONE
5402008-01-07 16:09PSTYesTMG/CRBUSGS137007.82 Unspecified NONE
5392008-01-07 16:05PSTYesTMG/CRBUSGS137007.83 Unspecified NONE
5382008-01-07 16:01PSTYesTMG/CRBUSGS134007.84 Unspecified NONE
5372008-01-07 15:57PSTYesTMG/CRBUSGS133007.85 Unspecified NONE
5362008-01-07 15:53PSTYesTMG/CRBUSGS132007.86 Unspecified NONE
5352008-01-07 15:48PSTYesTMG/CRBUSGS129007.87 Unspecified NONE
5342007-12-28 08:39PSTYesTMG/CRBUSGS-14704.87 Unspecified NONE
5332007-12-28 08:36PSTYesTMG/CRBUSGS-15604.85 Unspecified NONE
5322007-12-28 08:33PSTYesTMG/CRBUSGS-15404.84 Unspecified NONE
5312007-12-28 08:29PSTYesTMG/CRBUSGS-16204.82 Unspecified NONE
5302007-12-28 08:26PSTYesTMG/CRBUSGS-15904.81 Unspecified NONE
5292007-12-28 08:22PSTYesTMG/CRBUSGS-17504.79 Unspecified NONE
5282007-12-28 08:19PSTYesTMG/CRBUSGS-16904.77 Unspecified NONE
5272007-12-28 08:15PSTYesTMG/CRBUSGS-17504.75 Unspecified NONE
5262007-12-28 08:11PSTYesTMG/CRBUSGS-16704.73 Unspecified NONE
5252007-12-28 08:08PSTYesTMG/CRBUSGS-16904.72 Unspecified NONE
5242007-11-27 14:12PSTYesTMG/PSxUSGS-9444.24 Unspecified NONE
5232007-11-27 14:08PSTYesTMG/PSxUSGS-7034.21 Unspecified NONE
5222007-11-27 14:04PSTYesTMG/PSxUSGS-3444.18 Unspecified NONE
5212007-11-27 14:00PSTYesTMG/PSxUSGS79.04.15 Unspecified NONE
5202007-11-27 13:56PSTYesTMG/PSxUSGS4724.13 Unspecified NONE
5192007-11-27 13:51PSTYesTMG/PSxUSGS8174.10 Unspecified NONE
5182007-11-27 13:47PSTYesTMG/PSxUSGS11004.07 Unspecified NONE
5172007-11-27 13:43PSTYesTMG/PSxUSGS14304.05 Unspecified NONE
5162007-11-27 13:40PSTYesTMG/PSxUSGS18104.03 Unspecified NONE
5152007-11-27 13:35PSTYesTMG/PSxUSGS21004.00 Unspecified NONE
5142007-11-27 13:30PSTYesTMG/PSxUSGS25803.98 Unspecified NONE
5132007-11-27 13:26PSTYesTMG/PSxUSGS29503.96 Unspecified NONE
5122007-11-27 13:22PSTYesTMG/PSxUSGS31903.95 Unspecified NONE
5112007-11-27 13:18PSTYesTMG/PSxUSGS35203.93 Unspecified NONE
5102007-11-27 13:11PSTYesTMG/PSxUSGS41003.92 Unspecified NONE
5092007-11-27 13:07PSTYesTMG/PSxUSGS43303.91 Unspecified NONE
5082007-08-28 17:31PSTYesBJS/CBxUSGS-23305.43 Unspecified NONE
5072007-08-28 17:27PSTYesBJS/CBxUSGS-26305.43 Unspecified NONE
5062007-08-28 17:23PSTYesBJS/CBxUSGS-27105.42 Unspecified NONE
5052007-08-28 17:19PSTYesBJS/CBxUSGS-28805.41 Unspecified NONE
5042007-08-28 17:16PSTYesBJS/CBxUSGS-30905.39 Unspecified NONE
5032007-08-28 17:12PSTYesBJS/CBxUSGS-30905.38 Unspecified NONE
5022007-08-28 17:08PSTYesBJS/CBxUSGS-34205.37 Unspecified NONE
5012007-08-28 17:04PSTYesBJS/CBxUSGS-33905.35 Unspecified NONE
5002007-08-28 17:00PSTYesBJS/CBxUSGS-34905.34 Unspecified NONE
4992007-08-28 16:56PSTYesBJS/CBxUSGS-35405.32 Unspecified NONE
4982007-08-28 16:52PSTYesBJS/CBxUSGS-36405.30 Unspecified NONE
4972007-08-28 16:48PSTYesBJS/CBxUSGS-37505.28 Unspecified NONE
4962007-08-28 16:44PSTYesBJS/CBxUSGS-37305.26 Unspecified NONE
4952007-08-28 16:40PSTYesBJS/CBxUSGS-39005.24 Unspecified NONE
4942007-08-28 16:35PSTYesBJS/CBxUSGS-38305.21 Unspecified NONE
4932007-08-28 16:30PSTYesBJS/CBxUSGS-38305.19 Unspecified NONE
4922007-08-28 16:26PSTYesBJS/CBxUSGS-39405.16 Unspecified NONE
4912007-08-28 16:22PSTYesBJS/CBxUSGS-39405.13 Unspecified NONE
4902007-08-28 16:17PSTYesBJS/CBxUSGS-39105.10 Unspecified NONE
4892007-08-28 16:14PSTYesBJS/CBxUSGS-39405.08 Unspecified NONE
4882007-08-28 16:10PSTYesBJS/CBxUSGS-38905.06 Unspecified NONE
4872007-08-28 15:54PSTYesBJS/CBxUSGS-38704.95 Unspecified NONE
4862007-08-28 15:48PSTYesBJS/CBxUSGS-39104.91 Unspecified NONE
4852007-08-28 15:43PSTYesBJS/CBxUSGS-36604.87 Unspecified NONE
4842007-08-28 15:37PSTYesBJS/CBxUSGS-36504.83 Unspecified NONE
4832007-08-28 15:19PSTYesBJS/CBxUSGS-35204.71 Unspecified NONE
4822007-08-28 15:15PSTYesBJS/CBxUSGS-35304.67 Unspecified NONE
4812007-08-28 14:57PSTYesBJS/CBxUSGS-29804.52 Unspecified NONE
4802007-08-28 14:52PSTYesBJS/CBxUSGS-25904.48 Unspecified NONE
4792007-08-28 14:47PSTYesBJS/CBxUSGS-21604.42 Unspecified NONE
4782007-08-28 14:43PSTYesBJS/CBxUSGS-19604.38 Unspecified NONE
4772007-08-28 14:30PSTYesBJS/CBxUSGS-8274.25 Unspecified NONE
4762007-08-28 14:25PSTYesBJS/CBxUSGS-4184.20 Unspecified NONE
4752007-08-28 14:20PSTYesBJS/CBxUSGS76.04.15 Unspecified NONE
4742007-08-28 14:15PSTYesBJS/CBxUSGS6034.11 Unspecified NONE
4732007-08-28 14:10PSTYesBJS/CBxUSGS12304.05 Unspecified NONE
4722007-08-28 14:05PSTYesBJS/CBxUSGS17303.99 Unspecified NONE
4712007-08-28 14:00PSTYesBJS/CBxUSGS22103.95 Unspecified NONE
4702007-08-28 13:56PSTYesBJS/CBxUSGS26503.92 Unspecified NONE
4692007-08-28 13:51PSTYesBJS/CBxUSGS30503.88 Unspecified NONE
4682007-08-28 13:46PSTYesBJS/CBxUSGS34103.84 Unspecified NONE
4672007-08-28 13:42PSTYesBJS/CBxUSGS36603.81 Unspecified NONE
4662007-08-28 13:37PSTYesBJS/CBxUSGS39403.79 Unspecified NONE
4652007-08-28 13:32PSTYesBJS/CBxUSGS42403.77 Unspecified NONE
4642007-08-28 13:28PSTYesBJS/CBxUSGS44903.75 Unspecified NONE
4632007-08-28 13:23PSTYesBJS/CBxUSGS47303.73 Unspecified NONE
4622007-08-28 13:19PSTYesBJS/CBxUSGS49203.72 Unspecified NONE
4612007-08-28 13:12PSTYesBJS/CBxUSGS53403.70 Unspecified NONE
4602007-08-28 13:08PSTYesBJS/CBxUSGS56303.69 Unspecified NONE
4592007-08-28 13:03PSTYesBJS/CBxUSGS60103.68 Unspecified NONE
4582007-08-28 12:58PSTYesBJS/CBxUSGS65803.66 Unspecified NONE
4572007-08-28 12:52PSTYesBJS/CBxUSGS68103.64 Unspecified NONE
4562007-08-28 12:47PSTYesBJS/CBxUSGS75403.63 Unspecified NONE
4552007-08-28 12:41PSTYesBJS/CBxUSGS78703.62 Unspecified NONE
4542007-08-28 12:33PSTYesBJS/CBxUSGS83403.62 Unspecified NONE
4532007-08-28 12:13PSTYesBJS/CBxUSGS92003.65 Unspecified NONE
4522007-08-28 12:03PSTYesBJS/CBxUSGS95003.69 Unspecified NONE
4512007-08-28 11:56PSTYesBJS/CBxUSGS95203.71 Unspecified NONE
4502007-08-28 11:47PSTYesBJS/CBxUSGS99503.75 Unspecified NONE
4492007-08-28 11:38PSTYesBJS/CBxUSGS101003.80 Unspecified NONE
4482007-08-28 11:30PSTYesBJS/CBxUSGS101003.84 Unspecified NONE
4472007-08-28 11:04PSTYesBJS/CBxUSGS102003.99 Unspecified NONE
4462007-08-28 10:57PSTYesBJS/CBxUSGS103004.03 Unspecified NONE
4452007-08-28 10:49PSTYesBJS/CBxUSGS104004.08 Unspecified NONE
4442007-08-28 10:41PSTYesBJS/CBxUSGS104004.12 Unspecified NONE
4432007-08-28 10:35PSTYesBJS/CBxUSGS103004.17 Unspecified NONE
4422007-08-28 10:29PSTYesBJS/CBxUSGS104004.21 Unspecified NONE
4412007-08-28 09:32PSTYesBJS/CBxUSGS102004.58 Unspecified NONE
4402007-08-28 09:26PSTYesBJS/CBxUSGS102004.61 Unspecified NONE
4392007-08-28 09:19PSTYesBJS/CBxUSGS103004.67 Unspecified NONE
4382007-08-28 09:13PSTYesBJS/CBxUSGS102004.70 Unspecified NONE
4372007-08-28 09:08PSTYesBJS/CBxUSGS103004.74 Unspecified NONE
4362007-05-08 15:11PSTYes???USGS89603.40 Unspecified NONE
4352007-05-08 14:45PSTYes???USGS90803.55 Unspecified NONE
4342007-05-08 14:41PSTYes???USGS93203.57 Unspecified NONE
4332007-05-08 14:16PSTYes???USGS90903.71 Unspecified NONE
4322007-05-08 14:12PSTYes???USGS91203.74 Unspecified NONE
4312007-05-08 13:48PSTYes???USGS90703.89 Unspecified NONE
4302007-05-08 13:44PSTYes???USGS92203.92 Unspecified NONE
4292007-05-08 13:19PSTYes???USGS89604.07 Unspecified NONE
4282007-05-08 13:14PSTYes???USGS89804.12 Unspecified NONE
4272007-05-08 12:50PSTYes???USGS89504.26 Unspecified NONE
4262007-05-08 12:46PSTYes???USGS89204.29 Unspecified NONE
4252007-05-08 12:15PSTYes???USGS87104.48 Unspecified NONE
4242007-05-08 12:11PSTYes???USGS88504.52 Unspecified NONE
4232007-05-08 11:44PSTYes???USGS86704.69 Unspecified NONE
4222007-05-08 11:40PSTYes???USGS87604.73 Unspecified NONE
4212007-05-08 11:13PSTYes???USGS85604.89 Unspecified NONE
4202007-05-08 11:09PSTYes???USGS84404.92 Unspecified NONE
4192007-05-08 10:44PSTYes???USGS84205.07 Unspecified NONE
4182007-05-08 10:40PSTYes???USGS83005.10 Unspecified NONE
4172007-05-08 10:10PSTYes???USGS76005.27 Unspecified NONE
4162007-05-08 09:59PSTYes???USGS76205.32 Unspecified NONE
4152007-02-08 14:08PSTYes???USGS94004.27 Unspecified NONE
4142007-02-08 14:04PSTYes???USGS91904.29 Unspecified NONE
4132007-02-08 13:59PSTYes???USGS91504.31 Unspecified NONE
4122007-02-08 13:44PSTYes???USGS93504.39 Unspecified NONE
4112007-02-08 13:39PSTYes???USGS92904.42 Unspecified NONE
4102007-02-08 13:34PSTYes???USGS92104.44 Unspecified NONE
4092007-02-08 13:28PSTYes???USGS91004.47 Unspecified NONE
4082007-02-08 13:22PSTYes???USGS89804.50 Unspecified NONE
4072007-02-08 13:18PSTYes???USGS92104.53 Unspecified NONE
4062007-02-08 13:12PSTYes???USGS87904.55 Unspecified NONE
4052007-02-08 13:05PSTYes???USGS89504.59 Unspecified NONE
4042007-02-08 13:00PSTYes???USGS89304.61 Unspecified NONE
4032007-02-08 12:55PSTYes???USGS91204.64 Unspecified NONE
4022007-02-08 12:50PSTYes???USGS90404.66 Unspecified NONE
4012007-02-08 12:45PSTYes???USGS91204.69 Unspecified NONE
4002007-02-08 12:39PSTYes???USGS88004.72 Unspecified NONE
3992007-02-08 12:34PSTYes???USGS89904.75 Unspecified NONE
3982007-02-08 12:29PSTYes???USGS88904.77 Unspecified NONE
3972007-02-08 12:25PSTYes???USGS89004.80 Unspecified NONE
3962007-02-08 12:20PSTYes???USGS89004.82 Unspecified NONE
3952007-02-08 12:16PSTYes???USGS87804.85 Unspecified NONE
3942007-02-08 12:11PSTYes???USGS84804.87 Unspecified NONE
3932007-02-08 12:05PSTYes???USGS86204.90 Unspecified NONE
3922007-02-08 11:59PSTYes???USGS84804.94 Unspecified NONE
3912007-02-08 11:54PSTYes???USGS85404.96 Unspecified NONE
3902007-02-08 11:49PSTYes???USGS85004.99 Unspecified NONE
3892007-02-08 11:43PSTYes???USGS85105.02 Unspecified NONE
3882007-02-08 11:38PSTYes???USGS81205.05 Unspecified NONE
3872007-02-08 11:33PSTYes???USGS82605.07 Unspecified NONE
3862007-02-08 11:29PSTYes???USGS83305.10 Unspecified NONE
3852007-02-08 11:24PSTYes???USGS80305.12 Unspecified NONE
3842007-02-08 11:18PSTYes???USGS78905.15 Unspecified NONE
3832007-02-08 11:13PSTYes???USGS80405.18 Unspecified NONE
3822007-02-08 11:05PSTYes???USGS77005.23 Unspecified NONE
3812007-02-08 11:02PSTYes???USGS78005.24 Unspecified NONE
3802007-02-08 10:58PSTYes???USGS77705.26 Unspecified NONE
3792007-02-07 14:09PSTYes???USGS85904.05 Unspecified NONE
3782007-02-07 14:04PSTYes???USGS88604.07 Unspecified NONE
3772007-02-07 13:49PSTYes???USGS85904.14 Unspecified NONE
3762007-02-07 13:45PSTYes???USGS88404.16 Unspecified NONE
3752007-02-07 13:42PSTYes???USGS86104.18 Unspecified NONE
3742007-02-07 13:38PSTYes???USGS89304.19 Unspecified NONE
3732007-02-07 13:29PSTYes???USGS86804.23 Unspecified NONE
3722007-02-07 13:26PSTYes???USGS87604.25 Unspecified NONE
3712007-02-07 13:23PSTYes???USGS84904.26 Unspecified NONE
3702007-02-07 13:20PSTYes???USGS86504.28 Unspecified NONE
3692007-02-07 13:17PSTYes???USGS85904.29 Unspecified NONE
3682007-02-07 13:14PSTYes???USGS87904.31 Unspecified NONE
3672006-12-01 15:27PSTYes???USGS61305.15 Unspecified NONE
3662006-12-01 15:22PSTYes???USGS58505.17 Unspecified NONE
3652006-12-01 15:17PSTYes???USGS53105.20 Unspecified NONE
3642006-12-01 15:11PSTYes???USGS48005.24 Unspecified NONE
3632006-12-01 15:06PSTYes???USGS45805.26 Unspecified NONE
3622006-12-01 15:02PSTYes???USGS41005.29 Unspecified NONE
3612006-12-01 14:56PSTYes???USGS34205.32 Unspecified NONE
3602006-12-01 14:51PSTYes???USGS28305.36 Unspecified NONE
3592006-12-01 14:46PSTYes???USGS21705.39 Unspecified NONE
3582006-12-01 14:42PSTYes???USGS15805.42 Unspecified NONE
3572006-12-01 14:36PSTYes???USGS6905.45 Unspecified NONE
3562006-12-01 14:30PSTYes???USGS-55.05.49 Unspecified NONE
3552006-12-01 14:25PSTYes???USGS-7245.50 Unspecified NONE
3542006-12-01 14:19PSTYes???USGS-14205.53 Unspecified NONE
3532006-12-01 14:13PSTYes???USGS-19805.54 Unspecified NONE
3522006-12-01 14:07PSTYes???USGS-25105.54 Unspecified NONE
3512006-12-01 14:01PSTYes???USGS-30705.55 Unspecified NONE
3502006-12-01 13:55PSTYes???USGS-33105.54 Unspecified NONE
3492006-12-01 13:50PSTYes???USGS-36805.54 Unspecified NONE
3482006-12-01 13:45PSTYes???USGS-38905.53 Unspecified NONE
3472006-12-01 13:40PSTYes???USGS-42305.52 Unspecified NONE
3462006-12-01 13:35PSTYes???USGS-42805.51 Unspecified NONE
3452006-12-01 13:30PSTYes???USGS-46405.49 Unspecified NONE
3442006-12-01 13:24PSTYes???USGS-46505.47 Unspecified NONE
3432006-12-01 13:18PSTYes???USGS-49205.44 Unspecified NONE
3422006-12-01 13:12PSTYes???USGS-50105.41 Unspecified NONE
3412006-12-01 13:06PSTYes???USGS-53105.38 Unspecified NONE
3402006-12-01 13:00PSTYes???USGS-53605.34 Unspecified NONE
3392006-12-01 12:55PSTYes???USGS-56205.32 Unspecified NONE
3382006-12-01 12:50PSTYes???USGS-54705.28 Unspecified NONE
3372006-12-01 12:44PSTYes???USGS-57005.24 Unspecified NONE
3362006-12-01 12:39PSTYes???USGS-56505.20 Unspecified NONE
3352006-12-01 12:33PSTYes???USGS-58805.16 Unspecified NONE
3342006-12-01 12:28PSTYes???USGS-57205.12 Unspecified NONE
3332006-12-01 12:23PSTYes???USGS-59605.08 Unspecified NONE
3322006-12-01 12:18PSTYes???USGS-58905.04 Unspecified NONE
3312006-12-01 12:14PSTYes???USGS-60605.01 Unspecified NONE
3302006-12-01 12:09PSTYes???USGS-60204.97 Unspecified NONE
3292006-12-01 12:04PSTYes???USGS-59604.93 Unspecified NONE
3282006-12-01 11:02PSTYes???USGS-54704.39 Unspecified NONE
3272006-12-01 10:55PSTYes???USGS-55204.33 Unspecified NONE
3262006-12-01 10:49PSTYes???USGS-53004.28 Unspecified NONE
3252006-12-01 10:43PSTYes???USGS-53804.23 Unspecified NONE
3242006-12-01 10:37PSTYes???USGS-53004.17 Unspecified NONE
3232006-12-01 10:30PSTYes???USGS-51304.12 Unspecified NONE
3222006-12-01 10:25PSTYes???USGS-49204.08 Unspecified NONE
3212006-12-01 10:16PSTYes???USGS-47203.99 Unspecified NONE
3202006-12-01 10:10PSTYes???USGS-46403.94 Unspecified NONE
3192006-12-01 10:05PSTYes???USGS-46003.89 Unspecified NONE
3182006-12-01 09:59PSTYes???USGS-43103.83 Unspecified NONE
3172006-12-01 09:53PSTYes???USGS-41603.77 Unspecified NONE
3162006-12-01 09:40PSTYes???USGS-34203.64 Unspecified NONE
3152006-12-01 09:33PSTYes???USGS-27403.56 Unspecified NONE
3142006-12-01 09:24PSTYes???USGS-18903.45 Unspecified NONE
3132006-12-01 09:18PSTYes???USGS-13903.38 Unspecified NONE
3122006-03-07 15:02PSTYes???USGS2920010.58 Unspecified NONE
3112006-03-07 14:57PSTYes???USGS2870010.58 Unspecified NONE
3102006-03-07 14:51PSTYes???USGS2930010.58 Unspecified NONE
3092006-03-07 14:46PSTYes???USGS2850010.58 Unspecified NONE
3082006-03-07 14:38PSTYes???USGS2950010.58 Unspecified NONE
3072006-03-07 14:31PSTYes???USGS2920010.59 Unspecified NONE
3062006-01-19 11:22PSTYes???USGS279009.99 Unspecified NONE
3052006-01-19 11:16PSTYes???USGS2750010.00 Unspecified NONE
3042006-01-19 11:11PSTYes???USGS2750010.00 Unspecified NONE
3032006-01-19 11:05PSTYes???USGS2830010.00 Unspecified NONE
3022006-01-19 10:59PSTYes???USGS2760010.01 Unspecified NONE
3012006-01-19 10:53PSTYes???USGS2840010.02 Unspecified NONE
3002005-12-29 15:59PSTYes???USGS3640013.05 Unspecified NONE
2992005-12-29 15:55PSTYes???USGS3550013.06 Unspecified NONE
2982005-12-29 15:50PSTYes???USGS3540013.08 Unspecified NONE
2972005-12-29 15:46PSTYes???USGS3540013.08 Unspecified NONE
2962005-12-06 12:21PSTYes???USGS96404.91 Unspecified NONE
2952005-12-06 12:15PSTYes???USGS95604.93 Unspecified NONE
2942005-12-06 12:09PSTYes???USGS95304.95 Unspecified NONE
2932005-12-06 12:04PSTYes???USGS95604.97 Unspecified NONE
2922005-12-06 11:29PSTYes???USGS87205.08 Unspecified NONE
2912005-12-06 11:23PSTYes???USGS87005.09 Unspecified NONE
2902005-12-06 11:18PSTYes???USGS85405.11 Unspecified NONE
2892005-12-06 11:12PSTYes???USGS83705.13 Unspecified NONE
2882005-12-06 10:32PSTYes???USGS71605.22 Unspecified NONE
2872005-12-06 10:26PSTYes???USGS70505.23 Unspecified NONE
2862005-12-06 10:19PSTYes???USGS67605.23 Unspecified NONE
2852005-12-06 10:14PSTYes???USGS66405.24 Unspecified NONE
2842005-12-06 09:30PSTYes???USGS56305.19 Unspecified NONE
2832005-12-06 09:24PSTYes???USGS57205.17 Unspecified NONE
2822005-12-06 09:18PSTYes???USGS55505.16 Unspecified NONE
2812005-12-06 09:12PSTYes???USGS56105.14 Unspecified NONE
2802005-12-06 08:24PSTYes???USGS56204.92 Unspecified NONE
2792005-12-06 08:18PSTYes???USGS56704.89 Unspecified NONE
2782005-12-06 08:12PSTYes???USGS56004.87 Unspecified NONE
2772005-12-06 08:06PSTYes???USGS58104.84 Unspecified NONE
2762005-12-06 07:24PSTYes???USGS61804.61 Unspecified NONE
2752005-12-06 07:17PSTYes???USGS60704.58 Unspecified NONE
2742005-12-06 07:11PSTYes???USGS62304.54 Unspecified NONE
2732005-12-06 07:05PSTYes???USGS63904.50 Unspecified NONE
2722005-10-12 17:56PSTYes???USGS74104.25 Unspecified NONE
2712005-10-12 17:50PSTYes???USGS75604.27 Unspecified NONE
2702005-10-12 17:44PSTYes???USGS74104.29 Unspecified NONE
2692005-10-12 17:39PSTYes???USGS76704.33 Unspecified NONE
2682005-10-12 16:52PSTYes???USGS75204.55 Unspecified NONE
2672005-10-12 16:48PSTYes???USGS75004.57 Unspecified NONE
2662005-10-12 16:42PSTYes???USGS74704.60 Unspecified NONE
2652005-10-12 16:37PSTYes???USGS74004.62 Unspecified NONE
2642005-10-12 16:00PSTYes???USGS66004.78 Unspecified NONE
2632005-10-12 15:55PSTYes???USGS65104.80 Unspecified NONE
2622005-10-12 15:51PSTYes???USGS61804.81 Unspecified NONE
2612005-10-12 15:46PSTYes???USGS62604.83 Unspecified NONE
2602005-10-12 15:03PSTYes???USGS30405.01 Unspecified NONE
2592005-10-12 14:59PSTYes???USGS27705.02 Unspecified NONE
2582005-10-12 14:55PSTYes???USGS23005.04 Unspecified NONE
2572005-10-12 14:51PSTYes???USGS20905.05 Unspecified NONE
2562005-10-12 14:47PSTYes???USGS15705.08 Unspecified NONE
2552005-10-12 14:43PSTYes???USGS12605.09 Unspecified NONE
2542005-10-12 14:01PSTYes???USGS-19305.16 Unspecified NONE
2532005-10-12 13:57PSTYes???USGS-21505.15 Unspecified NONE
2522005-10-12 13:52PSTYes???USGS-23505.14 Unspecified NONE
2512005-10-12 13:48PSTYes???USGS-24805.14 Unspecified NONE
2502005-10-12 13:43PSTYes???USGS-27005.13 Unspecified NONE
2492005-10-12 12:53PSTYes???USGS-38304.92 Unspecified NONE
2482005-10-12 12:48PSTYes???USGS-39304.89 Unspecified NONE
2472005-10-12 12:44PSTYes???USGS-39304.87 Unspecified NONE
2462005-10-12 12:38PSTYes???USGS-40204.84 Unspecified NONE
2452005-10-12 12:32PSTYes???USGS-40404.79 Unspecified NONE
2442005-05-23 16:24PSTYes???USGS2740017.41 Unspecified NONE
2432005-05-23 16:19PSTYes???USGS2730017.41 Unspecified NONE
2422005-05-23 16:13PSTYes???USGS2750017.40 Unspecified NONE
2412005-05-23 16:08PSTYes???USGS2790017.39 Unspecified NONE
2402005-05-23 16:00PSTYes???USGS2730017.39 Unspecified NONE
2392005-05-23 15:55PSTYes???USGS2740017.38 Unspecified NONE
2382004-12-03 14:34PSTYes???USGS595011.62 Unspecified NONE
2372004-12-03 14:25PSTYes???USGS595011.65 Unspecified NONE
2362004-12-03 14:17PSTYes???USGS595011.68 Unspecified NONE
2352004-12-03 14:08PSTYes???USGS609011.72 Unspecified NONE
2342004-02-28 17:29PSTYes???USGS2880017.54 Unspecified NONE
2332004-02-28 17:23PSTYes???USGS2930017.54 Unspecified NONE
2322004-02-28 17:17PSTYes???USGS2830017.56 Unspecified NONE
2312004-02-28 17:10PSTYes???USGS2930017.56 Unspecified NONE
2302004-02-28 17:04PSTYes???USGS2880017.56 Unspecified NONE
2292004-02-28 16:57PSTYes???USGS2870017.58 Unspecified NONE
2282003-10-01 15:54PSTYes???USGS46311.80 Unspecified NONE
2272003-10-01 15:50PSTYes???USGS86211.77 Unspecified NONE
2262003-10-01 15:46PSTYes???USGS97311.74 Unspecified NONE
2252003-10-01 15:42PSTYes???USGS140011.72 Unspecified NONE
2242003-10-01 15:08PSTYes???USGS438011.59 Unspecified NONE
2232003-10-01 15:03PSTYes???USGS456011.58 Unspecified NONE
2222003-10-01 14:58PSTYes???USGS505011.58 Unspecified NONE
2212003-10-01 14:54PSTYes???USGS512011.57 Unspecified NONE
2202003-10-01 14:16PSTYes???USGS652011.61 Unspecified NONE
2192003-10-01 14:11PSTYes???USGS669011.63 Unspecified NONE
2182003-10-01 14:07PSTYes???USGS685011.64 Unspecified NONE
2172003-10-01 14:03PSTYes???USGS662011.64 Unspecified NONE
2162003-10-01 13:31PSTYes???USGS704011.76 Unspecified NONE
2152003-10-01 13:26PSTYes???USGS687011.78 Unspecified NONE
2142003-10-01 13:22PSTYes???USGS731011.79 Unspecified NONE
2132003-10-01 13:18PSTYes???USGS716011.81 Unspecified NONE
2122003-10-01 12:43PSTYes???USGS708011.97 Unspecified NONE
2112003-10-01 12:39PSTYes???USGS704011.99 Unspecified NONE
2102003-10-01 12:34PSTYes???USGS698012.00 Unspecified NONE
2092003-10-01 12:29PSTYes???USGS692012.02 Unspecified NONE
2082003-10-01 11:56PSTYes???USGS557012.17 Unspecified NONE
2072003-10-01 11:52PSTYes???USGS529012.18 Unspecified NONE
2062003-10-01 11:27PSTYes???USGS397012.27 Unspecified NONE
2052003-10-01 11:23PSTYes???USGS361012.28 Unspecified NONE
2042003-10-01 10:52PSTYes???USGS108012.39 Unspecified NONE
2032003-10-01 10:48PSTYes???USGS79312.40 Unspecified NONE
2022003-10-01 10:44PSTYes???USGS44612.42 Unspecified NONE
2012003-10-01 09:44PSTYes???USGS-272012.41 Unspecified NONE
2002003-10-01 09:39PSTYes???USGS-288012.40 Unspecified NONE
1992003-10-01 09:35PSTYes???USGS-310012.38 Unspecified NONE
1982003-10-01 08:53PSTYes???USGS-355012.21 Unspecified NONE
1972003-10-01 08:42PSTYes???USGS-370012.16 Unspecified NONE
1962003-10-01 08:38PSTYes???USGS-383012.14 Unspecified NONE
1952003-10-01 08:34PSTYes???USGS-395012.12 Unspecified NONE
1942003-10-01 07:40PSTYes???USGS-418011.79 Unspecified NONE
1932003-10-01 07:35PSTYes???USGS-435011.79 Unspecified NONE
1922003-10-01 07:30PSTYes???USGS-389011.72 Unspecified NONE
1912003-10-01 07:25PSTYes???USGS-366011.69 Unspecified NONE
1902003-10-01 06:47PSTYes???USGS-269011.40 Unspecified NONE
1892003-10-01 06:43PSTYes???USGS-251011.37 Unspecified NONE
1882003-10-01 06:39PSTYes???USGS-232011.34 Unspecified NONE
1872003-10-01 06:34PSTYes???USGS-204011.30 Unspecified NONE
1862001-11-06 11:24PSTYes???USGS117012.21 Unspecified NONE
1852001-11-06 11:18PSTYes???USGS61812.23 Unspecified NONE
1842001-11-06 11:13PSTYes???USGS20.012.25 Unspecified NONE
1832001-11-06 11:08PSTYes???USGS-61512.27 Unspecified NONE
1822001-11-06 11:04PSTYes???USGS-93812.29 Unspecified NONE
1812001-11-06 10:59PSTYes???USGS-126012.30 Unspecified NONE
1802001-11-06 10:54PSTYes???USGS-165012.30 Unspecified NONE
1792001-11-06 10:49PSTYes???USGS-188012.31 Unspecified NONE
1782001-11-06 10:35PSTYes???USGS-264012.30 Unspecified NONE
1772001-11-06 10:30PSTYes???USGS-276012.29 Unspecified NONE
1762001-11-06 10:24PSTYes???USGS-299012.29 Unspecified NONE
1752001-11-06 10:19PSTYes???USGS-302012.28 Unspecified NONE
1742001-11-06 10:14PSTYes???USGS-330012.28 Unspecified NONE
1732001-11-06 10:10PSTYes???USGS-336012.27 Unspecified NONE
1722001-11-06 10:05PSTYes???USGS-363012.27 Unspecified NONE
1712001-11-06 10:00PSTYes???USGS-366012.26 Unspecified NONE
1702001-11-06 09:47PSTYes???USGS-424012.22 Unspecified NONE
1692001-11-06 09:43PSTYes???USGS-422012.20 Unspecified NONE
1682001-11-06 09:38PSTYes???USGS-442012.18 Unspecified NONE
1672001-11-06 09:34PSTYes???USGS-437012.16 Unspecified NONE
1662001-11-06 09:29PSTYes???USGS-460012.15 Unspecified NONE
1652001-11-06 09:18PSTYes???USGS-479012.10 Unspecified NONE
1642001-11-06 09:05PSTYes???USGS-505012.05 Unspecified NONE
1632001-11-06 09:01PSTYes???USGS-505012.03 Unspecified NONE
1622001-11-06 08:48PSTYes???USGS-527011.96 Unspecified NONE
1612001-11-06 08:43PSTYes???USGS-513011.94 Unspecified NONE
1602001-11-06 08:38PSTYes???USGS-521011.91 Unspecified NONE
1592001-11-06 08:34PSTYes???USGS-532011.89 Unspecified NONE
1582001-11-06 08:29PSTYes???USGS-527011.86 Unspecified NONE
1572001-11-06 08:24PSTYes???USGS-526011.84 Unspecified NONE
1562001-11-06 08:19PSTYes???USGS-518011.81 Unspecified NONE
1552001-11-06 08:15PSTYes???USGS-528011.79 Unspecified NONE
1542001-11-06 08:10PSTYes???USGS-513011.76 Unspecified NONE
1532001-11-06 08:05PSTYes???USGS-512011.73 Unspecified NONE
1522001-11-06 08:00PSTYes???USGS-516011.70 Unspecified NONE
1512001-11-06 07:55PSTYes???USGS-515011.67 Unspecified NONE
1502001-11-06 07:48PSTYes???USGS-505011.63 Unspecified NONE
1492001-11-06 07:43PSTYes???USGS-509011.60 Unspecified NONE
1482001-11-06 07:38PSTYes???USGS-511011.56 Unspecified NONE
1472001-11-06 07:34PSTYes???USGS-513011.54 Unspecified NONE
1462001-11-06 07:30PSTYes???USGS-528011.51 Unspecified NONE
1452001-11-06 07:25PSTYes???USGS-511011.48 Unspecified NONE
1442001-11-06 07:19PSTYes???USGS-506011.45 Unspecified NONE
1432001-11-06 07:14PSTYes???USGS-514011.43 Unspecified NONE
1422001-11-06 07:09PSTYes???USGS-519011.39 Unspecified NONE
1412001-11-06 07:03PSTYes???USGS-504011.35 Unspecified NONE
1402001-11-06 06:57PSTYes???USGS-481011.31 Unspecified NONE
1392001-11-06 06:52PSTYes???USGS-477011.28 Unspecified NONE
1382001-11-06 06:46PSTYes???USGS-476011.24 Unspecified NONE
1372001-11-06 06:41PSTYes???USGS-469011.20 Unspecified NONE
1362001-11-06 06:35PSTYes???USGS-446011.16 Unspecified NONE
1352001-11-06 06:29PSTYes???USGS-434011.11 Unspecified NONE
1342001-11-06 06:23PSTYes???USGS-404011.07 Unspecified NONE
1332001-03-09 15:10PSTYes???USGS1610015.29 Unspecified NONE
1322001-03-09 15:06PSTYes???USGS1530015.27 Unspecified NONE
1312001-03-09 15:01PSTYes???USGS1640015.26 Unspecified NONE
1302001-03-09 14:57PSTYes???USGS1580015.24 Unspecified NONE
1292001-03-09 14:43PSTYes???USGS1630015.16 Unspecified NONE
1282001-03-09 14:38PSTYes???USGS1550015.14 Unspecified NONE
1272001-03-09 14:32PSTYes???USGS1600015.11 Unspecified NONE
1262001-03-09 14:27PSTYes???USGS1540015.08 Unspecified NONE
1252001-03-09 13:04PSTYes???USGS1820014.47 Unspecified NONE
1242001-03-09 12:59PSTYes???USGS1710014.43 Unspecified NONE
1232001-03-09 12:42PSTYes???USGS1860014.34 Unspecified NONE
1222001-03-09 12:36PSTYes???USGS1820014.30 Unspecified NONE
1212001-03-09 12:29PSTYes???USGS1870014.27 Unspecified NONE
1202001-03-09 12:23PSTYes???USGS1890014.23 Unspecified NONE
1192001-03-09 12:13PSTYes???USGS1940014.20 Unspecified NONE
1182000-08-31 12:18PSTYes???USGS996011.27 Unspecified NONE
1172000-08-31 12:13PSTYes???USGS974011.29 Unspecified NONE
1162000-08-31 12:09PSTYes???USGS992011.31 Unspecified NONE
1152000-08-31 12:05PSTYes???USGS1000011.34 Unspecified NONE
1142000-08-31 12:00PSTYes???USGS1010011.36 Unspecified NONE
1132000-08-31 11:55PSTYes???USGS992011.40 Unspecified NONE
1122000-02-16 13:43PSTYes???USGS3170019.90 Unspecified NONE
1112000-02-16 13:40PSTYes???USGS3150019.90 Unspecified NONE
1102000-02-16 13:36PSTYes???USGS3220019.91 Unspecified NONE
1092000-02-16 13:33PSTYes???USGS3050019.91 Unspecified NONE
1082000-02-16 11:47PSTYes???USGS3000019.69 Unspecified NONE
1072000-02-16 11:43PSTYes???USGS3150019.68 Unspecified NONE
1062000-02-16 11:40PSTYes???USGS3000019.67 Unspecified NONE
1052000-02-16 11:36PSTYes???USGS3110019.66 Unspecified NONE
1042000-02-16 11:33PSTYes???USGS3000019.65 Unspecified NONE
1032000-02-16 11:29PSTYes???USGS3120019.63 Unspecified NONE
1021999-08-12 14:27PSTYes???USGS270010.89 Unspecified NONE
1011999-08-12 14:24PSTYes???USGS315010.86 Unspecified NONE
1001999-08-12 14:21PSTYes???USGS362010.84 Unspecified NONE
991999-08-12 14:18PSTYes???USGS389010.82 Unspecified NONE
981999-08-12 13:08PSTYes???USGS889010.66 Unspecified NONE
971999-08-12 13:05PSTYes???USGS896010.67 Unspecified NONE
961999-08-12 13:02PSTYes???USGS891010.68 Unspecified NONE
951999-08-12 12:59PSTYes???USGS932010.69 Unspecified NONE
941999-08-12 11:57PSTYes???USGS1000011.01 Unspecified NONE
931999-08-12 11:54PSTYes???USGS947011.02 Unspecified NONE
921999-08-12 11:52PSTYes???USGS956011.04 Unspecified NONE
911999-08-12 11:48PSTYes???USGS1020011.06 Unspecified NONE
901999-08-12 11:45PSTYes???USGS995011.08 Unspecified NONE
891999-08-12 10:38PSTYes???USGS1020011.52 Unspecified NONE
881999-08-12 10:34PSTYes???USGS1030011.55 Unspecified NONE
871999-08-12 10:31PSTYes???USGS1020011.58 Unspecified NONE
861999-08-12 10:27PSTYes???USGS1050011.60 Unspecified NONE
851997-09-10 12:53PSTYes???USGS335012.36 Unspecified NONE
841997-09-10 12:50PSTYes???USGS234012.38 Unspecified NONE
831997-09-10 12:47PSTYes???USGS201012.41 Unspecified NONE
821997-09-10 12:45PSTYes???USGS193012.43 Unspecified NONE
811997-09-10 12:43PSTYes???USGS154012.45 Unspecified NONE
801997-09-10 12:41PSTYes???USGS123012.46 Unspecified NONE
791997-09-10 12:39PSTYes???USGS143012.45 Unspecified NONE
781997-09-10 12:36PSTYes???USGS114012.44 Unspecified NONE
771997-09-10 12:33PSTYes???USGS72612.43 Unspecified NONE
761997-09-10 12:31PSTYes???USGS59912.43 Unspecified NONE
751997-09-10 12:28PSTYes???USGS24212.44 Unspecified NONE
741997-09-10 12:25PSTYes???USGS57.012.47 Unspecified NONE
731997-09-10 12:23PSTYes???USGS-22712.48 Unspecified NONE
721997-09-10 12:20PSTYes???USGS-39212.50 Unspecified NONE
711997-09-10 11:09PSTYes???USGS-347012.42 Unspecified NONE
701997-09-10 11:07PSTYes???USGS-317012.40 Unspecified NONE
691997-09-10 11:04PSTYes???USGS-334012.39 Unspecified NONE
681997-09-10 11:02PSTYes???USGS-325012.38 Unspecified NONE
671997-09-10 11:00PSTYes???USGS-334012.37 Unspecified NONE
661997-09-10 10:57PSTYes???USGS-319012.36 Unspecified NONE
651997-09-10 10:54PSTYes???USGS-332012.34 Unspecified NONE
641997-09-10 10:51PSTYes???USGS-335012.33 Unspecified NONE
631997-09-10 09:37PSTYes???USGS-358011.91 Unspecified NONE
621997-09-10 09:34PSTYes???USGS-373011.89 Unspecified NONE
611997-09-10 09:31PSTYes???USGS-359011.88 Unspecified NONE
601997-09-10 09:29PSTYes???USGS-366011.87 Unspecified NONE
591997-09-10 09:26PSTYes???USGS-351011.84 Unspecified NONE
581997-09-10 09:23PSTYes???USGS-346011.82 Unspecified NONE
571997-09-10 09:16PSTYes???USGS-318011.78 Unspecified NONE
561997-09-10 09:13PSTYes???USGS-320011.76 Unspecified NONE
551997-09-10 09:11PSTYes???USGS-297011.73 Unspecified NONE
541997-09-10 09:08PSTYes???USGS-303011.71 Unspecified NONE
531997-09-10 09:05PSTYes???USGS-282011.68 Unspecified NONE
521997-09-10 09:03PSTYes???USGS-276011.65 Unspecified NONE
511997-09-10 07:24PSTYes???USGS465010.95 Unspecified NONE
501997-09-10 07:21PSTYes???USGS514010.93 Unspecified NONE
491997-09-10 07:17PSTYes???USGS519010.92 Unspecified NONE
481997-09-10 07:14PSTYes???USGS543010.92 Unspecified NONE
471997-09-10 07:10PSTYes???USGS561010.91 Unspecified NONE
461997-09-10 07:07PSTYes???USGS596010.91 Unspecified NONE
451997-09-10 07:04PSTYes???USGS554010.91 Unspecified NONE
441997-09-10 07:01PSTYes???USGS622010.90 Unspecified NONE
431997-09-09 14:04PSTYes???USGS789011.94 Unspecified NONE
421997-09-09 14:01PSTYes???USGS731011.95 Unspecified NONE
411997-09-09 13:58PSTYes???USGS793011.97 Unspecified NONE
401997-09-09 13:55PSTYes???USGS725011.99 Unspecified NONE
391997-09-09 13:53PSTYes???USGS789012.00 Unspecified NONE
381997-09-09 13:50PSTYes???USGS741012.01 Unspecified NONE
371997-09-09 13:48PSTYes???USGS798012.01 Unspecified NONE
361997-09-09 13:45PSTYes???USGS765012.02 Unspecified NONE
351997-09-09 12:12PSTYes???USGS565012.37 Unspecified NONE
341997-09-09 12:09PSTYes???USGS539012.38 Unspecified NONE
331997-09-09 12:05PSTYes???USGS527012.39 Unspecified NONE
321997-09-09 12:02PSTYes???USGS483012.39 Unspecified NONE
311997-09-09 11:59PSTYes???USGS509012.40 Unspecified NONE
301997-09-09 11:56PSTYes???USGS450012.42 Unspecified NONE
291997-09-09 11:53PSTYes???USGS442012.44 Unspecified NONE
281997-09-09 11:50PSTYes???USGS371012.45 Unspecified NONE
271997-09-09 11:47PSTYes???USGS390012.46 Unspecified NONE
261997-09-09 11:44PSTYes???USGS354012.47 Unspecified NONE
251997-09-09 11:41PSTYes???USGS336012.48 Unspecified NONE
241997-09-09 11:34PSTYes???USGS247012.52 Unspecified NONE
231997-09-09 11:31PSTYes???USGS186012.54 Unspecified NONE
221997-09-09 11:29PSTYes???USGS248012.55 Unspecified NONE
211997-07-25 12:53PSTYes???USGS1080012.07 Unspecified NONE
201997-07-25 12:51PSTYes???USGS1100012.09 Unspecified NONE
191997-07-25 12:48PSTYes???USGS1090012.10 Unspecified NONE
181997-07-25 12:46PSTYes???USGS1090012.12 Unspecified NONE
171997-07-25 11:30PSTYes???USGS1060012.59 Unspecified NONE
161997-07-25 11:27PSTYes???USGS1040012.60 Unspecified NONE
151997-07-25 11:25PSTYes???USGS1060012.61 Unspecified NONE
141997-07-25 11:22PSTYes???USGS1010012.63 Unspecified NONE
131997-07-25 11:20PSTYes???USGS1030012.64 Unspecified NONE
121997-07-25 11:17PSTYes???USGS986012.66 Unspecified NONE
111997-07-25 09:54PSTYes???USGS571013.04 Unspecified NONE
101997-07-25 09:52PSTYes???USGS533013.06 Unspecified NONE
91997-07-25 09:49PSTYes???USGS505013.08 Unspecified NONE
81997-07-25 09:46PSTYes???USGS459013.09 Unspecified NONE
71997-07-25 09:44PSTYes???USGS434013.11 Unspecified NONE
61997-07-25 09:40PSTYes???USGS374013.13 Unspecified NONE
51996-10-25 11:22PSTYes???USGS53711.03 Unspecified NONE
41996-10-25 11:19PSTYes???USGS83310.99 Unspecified NONE
31996-10-25 11:16PSTYes???USGS117010.96 Unspecified NONE
21996-10-25 11:13PSTYes???USGS154010.94 Unspecified NONE
11996-10-25 11:11PSTYes???USGS172010.92 Unspecified NONE